Observation data for Crowell on 01/11/2018      Previous  Date  Next       Current Mesonet Observations  Soil Data  Daily Summary Page  Observations in Plain Language
KCR1 110600Z 20014KT 11/05 A2956 RMK A01 T01100054  RH  068%=      5-min Rain = 0
KCR1 110601Z 20013KT 11/05 A2956 RMK A01 T01100054  RH  069%=      5-min Rain = 0
KCR1 110602Z 20014KT 11/05 A2956 RMK A01 T01090054  RH  069%=      5-min Rain = 0
KCR1 110603Z 20013KT 11/06 A2956 RMK A01 T01080055  RH  069%=      5-min Rain = 0
KCR1 110604Z 20014KT 11/06 A2956 RMK A01 T01080055  RH  069%=      5-min Rain = 0
KCR1 110605Z 20014KT 11/06 A2956 RMK A01 T01090055  RH  069%=      5-min Rain = 0
KCR1 110606Z 19013KT 11/06 A2956 RMK A01 T01080055  RH  069%=      5-min Rain = 0
KCR1 110607Z 20013KT 11/06 A2956 RMK A01 T01080055  RH  070%=      5-min Rain = 0
KCR1 110608Z 20013KT 11/06 A2956 RMK A01 T01070055  RH  070%=      5-min Rain = 0
KCR1 110609Z 20013KT 11/06 A2956 RMK A01 T01060055  RH  071%=      5-min Rain = 0
KCR1 110610Z 20012KT 11/06 A2956 RMK A01 T01060055  RH  071%=      5-min Rain = 0
KCR1 110611Z 20012KT 11/06 A2956 RMK A01 T01060055  RH  071%=      5-min Rain = 0
KCR1 110612Z 20012KT 11/06 A2956 RMK A01 T01060055  RH  071%=      5-min Rain = 0
KCR1 110613Z 20012KT 11/06 A2956 RMK A01 T01050055  RH  071%=      5-min Rain = 0
KCR1 110614Z 20013KT 11/06 A2956 RMK A01 T01050055  RH  071%=      5-min Rain = 0
KCR1 110615Z 20014KT 11/06 A2956 RMK A01 T01050055  RH  071%=      5-min Rain = 0
KCR1 110616Z 19014KT 11/06 A2956 RMK A01 T01060055  RH  071%=      5-min Rain = 0
KCR1 110617Z 19014KT 11/06 A2956 RMK A01 T01050055  RH  071%=      5-min Rain = 0
KCR1 110618Z 19013KT 11/06 A2956 RMK A01 T01050055  RH  071%=      5-min Rain = 0
KCR1 110619Z 19014KT 10/06 A2956 RMK A01 T01040055  RH  072%=      5-min Rain = 0
KCR1 110620Z 19013KT 10/06 A2956 RMK A01 T01040055  RH  072%=      5-min Rain = 0
KCR1 110621Z 19012KT 10/06 A2956 RMK A01 T01040055  RH  072%=      5-min Rain = 0
KCR1 110622Z 19013KT 10/06 A2956 RMK A01 T01030055  RH  072%=      5-min Rain = 0
KCR1 110623Z 19013KT 10/06 A2956 RMK A01 T01020055  RH  073%=      5-min Rain = 0
KCR1 110624Z 19013KT 10/06 A2956 RMK A01 T01020055  RH  073%=      5-min Rain = 0
KCR1 110625Z 19013KT 10/06 A2956 RMK A01 T01020055  RH  073%=      5-min Rain = 0
KCR1 110626Z 19014KT 10/06 A2956 RMK A01 T01020055  RH  073%=      5-min Rain = 0
KCR1 110627Z 19014KT 10/06 A2956 RMK A01 T01020055  RH  073%=      5-min Rain = 0
KCR1 110628Z 19015KT 10/06 A2956 RMK A01 T01020055  RH  073%=      5-min Rain = 0
KCR1 110629Z 19014KT 10/06 A2956 RMK A01 T01030056  RH  072%=      5-min Rain = 0
KCR1 110630Z 19014KT 10/06 A2956 RMK A01 T01030056  RH  072%=      5-min Rain = 0
KCR1 110631Z 19014KT 10/06 A2956 RMK A01 T01030056  RH  073%=      5-min Rain = 0
KCR1 110632Z 20012KT 10/06 A2956 RMK A01 T01030056  RH  073%=      5-min Rain = 0
KCR1 110633Z 20012KT 10/06 A2956 RMK A01 T01020056  RH  073%=      5-min Rain = 0
KCR1 110634Z 20012KT 10/06 A2956 RMK A01 T01010055  RH  073%=      5-min Rain = 0
KCR1 110635Z 19012KT 10/06 A2956 RMK A01 T01010055  RH  073%=      5-min Rain = 0
KCR1 110636Z 19012KT 10/06 A2956 RMK A01 T01010056  RH  073%=      5-min Rain = 0
KCR1 110637Z 19013KT 10/06 A2956 RMK A01 T01010055  RH  073%=      5-min Rain = 0
KCR1 110638Z 20014KT 10/06 A2956 RMK A01 T01000055  RH  073%=      5-min Rain = 0
KCR1 110639Z 19013KT 10/06 A2956 RMK A01 T01010055  RH  073%=      5-min Rain = 0
KCR1 110640Z 20014KT 10/06 A2956 RMK A01 T01020055  RH  073%=      5-min Rain = 0
KCR1 110641Z 19013KT 10/05 A2955 RMK A01 T01020054  RH  072%=      5-min Rain = 0
KCR1 110642Z 19014KT 10/05 A2955 RMK A01 T01010054  RH  073%=      5-min Rain = 0
KCR1 110643Z 19014KT 10/05 A2955 RMK A01 T01010054  RH  073%=      5-min Rain = 0
KCR1 110644Z 19014KT 10/05 A2955 RMK A01 T01010054  RH  073%=      5-min Rain = 0
KCR1 110645Z 19012KT 10/05 A2956 RMK A01 T01010054  RH  073%=      5-min Rain = 0
KCR1 110646Z 19014KT 10/05 A2956 RMK A01 T01000054  RH  073%=      5-min Rain = 0
KCR1 110647Z 20014KT 10/05 A2956 RMK A01 T00990054  RH  073%=      5-min Rain = 0
KCR1 110648Z 20014KT 10/05 A2956 RMK A01 T00990054  RH  073%=      5-min Rain = 0
KCR1 110649Z 20013KT 10/05 A2956 RMK A01 T01000054  RH  073%=      5-min Rain = 0
KCR1 110650Z 20013KT 10/05 A2956 RMK A01 T00990054  RH  073%=      5-min Rain = 0
KCR1 110651Z 20012KT 10/05 A2956 RMK A01 T00990054  RH  073%=      5-min Rain = 0
KCR1 110652Z 20011KT 10/05 A2956 RMK A01 T00990054  RH  074%=      5-min Rain = 0
KCR1 110653Z 21011KT 10/05 A2956 RMK A01 T00980053  RH  074%=      5-min Rain = 0
KCR1 110654Z 21011KT 10/05 A2956 RMK A01 T00970053  RH  074%=      5-min Rain = 0
KCR1 110655Z 21011KT 10/05 A2956 RMK A01 T00980054  RH  074%=      5-min Rain = 0
KCR1 110656Z 20011KT 10/05 A2956 RMK A01 T00970053  RH  074%=      5-min Rain = 0
KCR1 110657Z 20011KT 10/05 A2956 RMK A01 T00960053  RH  074%=      5-min Rain = 0
KCR1 110658Z 20011KT 10/05 A2956 RMK A01 T00960053  RH  075%=      5-min Rain = 0
KCR1 110659Z 20011KT 10/05 A2956 RMK A01 T00960053  RH  074%=      5-min Rain = 0
KCR1 110700Z 20012KT 10/05 A2956 RMK A01 T00960053  RH  074%=      5-min Rain = 0
KCR1 110701Z 20011KT 10/05 A2956 RMK A01 T00960053  RH  074%=      5-min Rain = 0
KCR1 110702Z 20012KT 10/05 A2956 RMK A01 T00960052  RH  074%=      5-min Rain = 0
KCR1 110703Z 20013KT 10/05 A2956 RMK A01 T00960052  RH  074%=      5-min Rain = 0
KCR1 110704Z 20012KT 10/05 A2955 RMK A01 T00960053  RH  074%=      5-min Rain = 0
KCR1 110705Z 20012KT 10/05 A2955 RMK A01 T00960052  RH  074%=      5-min Rain = 0
KCR1 110706Z 20011KT 10/05 A2955 RMK A01 T00960052  RH  074%=      5-min Rain = 0
KCR1 110707Z 20011KT 10/05 A2955 RMK A01 T00950052  RH  075%=      5-min Rain = 0
KCR1 110708Z 21011KT 09/05 A2955 RMK A01 T00940052  RH  075%=      5-min Rain = 0
KCR1 110709Z 21012KT 09/05 A2955 RMK A01 T00940052  RH  075%=      5-min Rain = 0
KCR1 110710Z 21012KT 09/05 A2955 RMK A01 T00940052  RH  075%=      5-min Rain = 0
KCR1 110711Z 20013KT 09/05 A2955 RMK A01 T00940052  RH  075%=      5-min Rain = 0
KCR1 110712Z 21012KT 09/05 A2955 RMK A01 T00940052  RH  075%=      5-min Rain = 0
KCR1 110713Z 21012KT 09/05 A2955 RMK A01 T00940052  RH  075%=      5-min Rain = 0
KCR1 110714Z 21013KT 09/05 A2955 RMK A01 T00930051  RH  075%=      5-min Rain = 0
KCR1 110715Z 21012KT 09/05 A2955 RMK A01 T00930051  RH  075%=      5-min Rain = 0
KCR1 110716Z 20013KT 09/05 A2955 RMK A01 T00940051  RH  075%=      5-min Rain = 0
KCR1 110717Z 21012KT 09/05 A2955 RMK A01 T00940051  RH  075%=      5-min Rain = 0
KCR1 110718Z 21012KT 09/05 A2955 RMK A01 T00940051  RH  075%=      5-min Rain = 0
KCR1 110719Z 21013KT 09/05 A2955 RMK A01 T00930051  RH  075%=      5-min Rain = 0
KCR1 110720Z 21012KT 09/05 A2955 RMK A01 T00930050  RH  075%=      5-min Rain = 0
KCR1 110721Z 21012KT 09/05 A2955 RMK A01 T00930050  RH  075%=      5-min Rain = 0
KCR1 110722Z 21012KT 09/05 A2955 RMK A01 T00920050  RH  075%=      5-min Rain = 0
KCR1 110723Z 21012KT 09/05 A2955 RMK A01 T00920051  RH  075%=      5-min Rain = 0
KCR1 110724Z 21012KT 09/05 A2955 RMK A01 T00920050  RH  075%=      5-min Rain = 0
KCR1 110725Z 21011KT 09/05 A2955 RMK A01 T00910050  RH  075%=      5-min Rain = 0
KCR1 110726Z 21011KT 09/05 A2954 RMK A01 T00910050  RH  075%=      5-min Rain = 0
KCR1 110727Z 21010KT 09/05 A2954 RMK A01 T00900050  RH  076%=      5-min Rain = 0
KCR1 110728Z 21011KT 09/05 A2954 RMK A01 T00890050  RH  076%=      5-min Rain = 0
KCR1 110729Z 21012KT 09/05 A2954 RMK A01 T00890050  RH  076%=      5-min Rain = 0
KCR1 110730Z 21012KT 09/05 A2954 RMK A01 T00900050  RH  076%=      5-min Rain = 0
KCR1 110731Z 21011KT 09/05 A2954 RMK A01 T00900049  RH  076%=      5-min Rain = 0
KCR1 110732Z 21012KT 09/05 A2954 RMK A01 T00890049  RH  076%=      5-min Rain = 0
KCR1 110733Z 21011KT 09/05 A2954 RMK A01 T00890049  RH  076%=      5-min Rain = 0
KCR1 110734Z 21011KT 09/05 A2954 RMK A01 T00880049  RH  076%=      5-min Rain = 0
KCR1 110735Z 21012KT 09/05 A2954 RMK A01 T00870049  RH  077%=      5-min Rain = 0
KCR1 110736Z 21012KT 09/05 A2954 RMK A01 T00870048  RH  077%=      5-min Rain = 0
KCR1 110737Z 21011KT 09/05 A2954 RMK A01 T00870049  RH  077%=      5-min Rain = 0
KCR1 110738Z 21011KT 09/05 A2954 RMK A01 T00870049  RH  077%=      5-min Rain = 0
KCR1 110739Z 21012KT 09/05 A2954 RMK A01 T00860049  RH  077%=      5-min Rain = 0
KCR1 110740Z 21011KT 09/05 A2954 RMK A01 T00860048  RH  077%=      5-min Rain = 0
KCR1 110741Z 21012KT 09/05 A2954 RMK A01 T00870048  RH  077%=      5-min Rain = 0
KCR1 110742Z 22012KT 09/05 A2954 RMK A01 T00870048  RH  076%=      5-min Rain = 0
KCR1 110743Z 22012KT 09/05 A2955 RMK A01 T00870048  RH  076%=      5-min Rain = 0
KCR1 110744Z 22010KT 09/05 A2955 RMK A01 T00870047  RH  076%=      5-min Rain = 0
KCR1 110745Z 22009KT 09/05 A2955 RMK A01 T00860047  RH  076%=      5-min Rain = 0
KCR1 110746Z 22010KT 08/05 A2955 RMK A01 T00840047  RH  077%=      5-min Rain = 0
KCR1 110747Z 22010KT 08/05 A2955 RMK A01 T00840047  RH  077%=      5-min Rain = 0
KCR1 110748Z 22010KT 08/05 A2955 RMK A01 T00840047  RH  077%=      5-min Rain = 0
KCR1 110749Z 22010KT 08/05 A2954 RMK A01 T00830046  RH  077%=      5-min Rain = 0
KCR1 110750Z 21012KT 08/05 A2954 RMK A01 T00830046  RH  078%=      5-min Rain = 0
KCR1 110751Z 22011KT 08/05 A2954 RMK A01 T00830046  RH  078%=      5-min Rain = 0
KCR1 110752Z 22011KT 08/05 A2954 RMK A01 T00830046  RH  077%=      5-min Rain = 0
KCR1 110753Z 22011KT 08/05 A2954 RMK A01 T00830045  RH  077%=      5-min Rain = 0
KCR1 110754Z 22011KT 08/05 A2954 RMK A01 T00830045  RH  077%=      5-min Rain = 0
KCR1 110755Z 22011KT 08/05 A2954 RMK A01 T00830045  RH  077%=      5-min Rain = 0
KCR1 110756Z 22010KT 08/05 A2954 RMK A01 T00830045  RH  077%=      5-min Rain = 0
KCR1 110757Z 22011KT 08/05 A2954 RMK A01 T00830045  RH  077%=      5-min Rain = 0
KCR1 110758Z 22011KT 08/04 A2954 RMK A01 T00830044  RH  077%=      5-min Rain = 0
KCR1 110759Z 22011KT 08/04 A2954 RMK A01 T00830044  RH  077%=      5-min Rain = 0
KCR1 110800Z 22012KT 08/04 A2954 RMK A01 T00830044  RH  076%=      5-min Rain = 0
KCR1 110801Z 22012KT 08/04 A2954 RMK A01 T00830043  RH  076%=      5-min Rain = 0
KCR1 110802Z 22012G17KT 08/04 A2954 RMK A01 T00840043  RH  076%=      5-min Rain = 0
KCR1 110803Z 22012KT 08/04 A2954 RMK A01 T00840043  RH  075%=      5-min Rain = 0
KCR1 110804Z 22013KT 09/04 A2954 RMK A01 T00850043  RH  075%=      5-min Rain = 0
KCR1 110805Z 22012KT 08/04 A2954 RMK A01 T00840042  RH  075%=      5-min Rain = 0
KCR1 110806Z 22012KT 08/04 A2954 RMK A01 T00840042  RH  075%=      5-min Rain = 0
KCR1 110807Z 22012KT 09/04 A2954 RMK A01 T00850042  RH  074%=      5-min Rain = 0
KCR1 110808Z 23013KT 09/04 A2954 RMK A01 T00860041  RH  074%=      5-min Rain = 0
KCR1 110809Z 22012KT 09/04 A2954 RMK A01 T00870041  RH  073%=      5-min Rain = 0
KCR1 110810Z 22012KT 09/04 A2954 RMK A01 T00870041  RH  073%=      5-min Rain = 0
KCR1 110811Z 22012KT 09/04 A2954 RMK A01 T00870041  RH  073%=      5-min Rain = 0
KCR1 110812Z 22012KT 09/04 A2953 RMK A01 T00870041  RH  073%=      5-min Rain = 0
KCR1 110813Z 22013KT 09/04 A2953 RMK A01 T00870040  RH  073%=      5-min Rain = 0
KCR1 110814Z 22012KT 09/04 A2953 RMK A01 T00880040  RH  072%=      5-min Rain = 0
KCR1 110815Z 22013KT 09/04 A2953 RMK A01 T00880040  RH  072%=      5-min Rain = 0
KCR1 110816Z 21014KT 09/04 A2953 RMK A01 T00880039  RH  072%=      5-min Rain = 0
KCR1 110817Z 22013KT 09/04 A2953 RMK A01 T00890040  RH  071%=      5-min Rain = 0
KCR1 110818Z 22014KT 09/04 A2953 RMK A01 T00900039  RH  070%=      5-min Rain = 0
KCR1 110819Z 21013KT 09/04 A2953 RMK A01 T00910039  RH  070%=      5-min Rain = 0
KCR1 110820Z 22013KT 09/04 A2953 RMK A01 T00910039  RH  070%=      5-min Rain = 0
KCR1 110821Z 22012KT 09/04 A2952 RMK A01 T00910038  RH  069%=      5-min Rain = 0
KCR1 110822Z 22012KT 09/04 A2952 RMK A01 T00920038  RH  069%=      5-min Rain = 0
KCR1 110823Z 22011KT 09/04 A2953 RMK A01 T00910038  RH  069%=      5-min Rain = 0
KCR1 110824Z 22011KT 09/04 A2953 RMK A01 T00910038  RH  069%=      5-min Rain = 0
KCR1 110825Z 22010KT 09/04 A2953 RMK A01 T00910037  RH  069%=      5-min Rain = 0
KCR1 110826Z 22010KT 09/04 A2953 RMK A01 T00900037  RH  069%=      5-min Rain = 0
KCR1 110827Z 22010KT 09/04 A2953 RMK A01 T00900037  RH  069%=      5-min Rain = 0
KCR1 110828Z 22010KT 09/04 A2953 RMK A01 T00890036  RH  069%=      5-min Rain = 0
KCR1 110829Z 22010KT 09/04 A2953 RMK A01 T00890036  RH  069%=      5-min Rain = 0
KCR1 110830Z 22009KT 09/04 A2953 RMK A01 T00890036  RH  069%=      5-min Rain = 0
KCR1 110831Z 22009KT 09/04 A2953 RMK A01 T00890035  RH  069%=      5-min Rain = 0
KCR1 110832Z 22010KT 09/04 A2952 RMK A01 T00900035  RH  069%=      5-min Rain = 0
KCR1 110833Z 22010KT 09/04 A2952 RMK A01 T00910035  RH  068%=      5-min Rain = 0
KCR1 110834Z 22010KT 09/04 A2952 RMK A01 T00920035  RH  068%=      5-min Rain = 0
KCR1 110835Z 22011KT 09/04 A2952 RMK A01 T00920035  RH  068%=      5-min Rain = 0
KCR1 110836Z 22010KT 09/03 A2952 RMK A01 T00920034  RH  067%=      5-min Rain = 0
KCR1 110837Z 22010KT 09/04 A2952 RMK A01 T00930035  RH  067%=      5-min Rain = 0
KCR1 110838Z 22011KT 09/03 A2952 RMK A01 T00930034  RH  067%=      5-min Rain = 0
KCR1 110839Z 22011KT 09/03 A2952 RMK A01 T00940034  RH  066%=      5-min Rain = 0
KCR1 110840Z 22012KT 10/03 A2952 RMK A01 T00960034  RH  065%=      5-min Rain = 0
KCR1 110841Z 22013KT 10/03 A2952 RMK A01 T00990034  RH  064%=      5-min Rain = 0
KCR1 110842Z 23012KT 10/03 A2952 RMK A01 T01030034  RH  062%=      5-min Rain = 0
KCR1 110843Z 23015G20KT 11/03 A2952 RMK A01 T01050034  RH  061%=      5-min Rain = 0
KCR1 110844Z 23016KT 11/03 A2952 RMK A01 T01100033  RH  059%=      5-min Rain = 0
KCR1 110845Z 23014KT 11/03 A2952 RMK A01 T01130033  RH  058%=      5-min Rain = 0
KCR1 110846Z 23013KT 12/03 A2952 RMK A01 T01150032  RH  057%=      5-min Rain = 0
KCR1 110847Z 23015G20KT 12/03 A2952 RMK A01 T01160032  RH  056%=      5-min Rain = 0
KCR1 110848Z 23015KT 12/03 A2952 RMK A01 T01190032  RH  055%=      5-min Rain = 0
KCR1 110849Z 23016KT 12/03 A2952 RMK A01 T01200031  RH  054%=      5-min Rain = 0
KCR1 110850Z 23016KT 12/03 A2952 RMK A01 T01220031  RH  054%=      5-min Rain = 0
KCR1 110851Z 24017KT 12/03 A2952 RMK A01 T01240030  RH  053%=      5-min Rain = 0
KCR1 110852Z 24017KT 13/03 A2952 RMK A01 T01260030  RH  052%=      5-min Rain = 0
KCR1 110853Z 24021G26KT 13/03 A2952 RMK A01 T01280029  RH  051%=      5-min Rain = 0
KCR1 110854Z 23020G27KT 13/03 A2952 RMK A01 T01300029  RH  050%=      5-min Rain = 0
KCR1 110855Z 24019G24KT 13/03 A2952 RMK A01 T01310028  RH  050%=      5-min Rain = 0
KCR1 110856Z 24020KT 13/03 A2952 RMK A01 T01310028  RH  050%=      5-min Rain = 0
KCR1 110857Z 24017KT 13/03 A2952 RMK A01 T01320028  RH  049%=      5-min Rain = 0
KCR1 110858Z 24021KT 13/03 A2952 RMK A01 T01310028  RH  049%=      5-min Rain = 0
KCR1 110859Z 24018G23KT 13/03 A2952 RMK A01 T01320028  RH  049%=      5-min Rain = 0
KCR1 110900Z 23021KT 13/03 A2952 RMK A01 T01330027  RH  049%=      5-min Rain = 0
KCR1 110901Z 24022G30KT 13/03 A2952 RMK A01 T01330027  RH  049%=      5-min Rain = 0
KCR1 110902Z 23025KT 14/03 A2952 RMK A01 T01350027  RH  048%=      5-min Rain = 0
KCR1 110903Z 24022KT 14/03 A2952 RMK A01 T01370026  RH  047%=      5-min Rain = 0
KCR1 110904Z 24023KT 14/03 A2952 RMK A01 T01370026  RH  047%=      5-min Rain = 0
KCR1 110905Z 24020KT 14/03 A2952 RMK A01 T01360027  RH  047%=      5-min Rain = 0
KCR1 110906Z 24021G29KT 14/03 A2952 RMK A01 T01360027  RH  048%=      5-min Rain = 0
KCR1 110907Z 24019G25KT 14/03 A2952 RMK A01 T01360026  RH  048%=      5-min Rain = 0
KCR1 110908Z 24021G26KT 14/03 A2952 RMK A01 T01350026  RH  048%=      5-min Rain = 0
KCR1 110909Z 24022G28KT 14/03 A2952 RMK A01 T01360026  RH  047%=      5-min Rain = 0
KCR1 110910Z 24023KT 14/03 A2952 RMK A01 T01370025  RH  047%=      5-min Rain = 0
KCR1 110911Z 24020KT 14/03 A2952 RMK A01 T01380025  RH  046%=      5-min Rain = 0
KCR1 110912Z 24018G24KT 14/03 A2952 RMK A01 T01390025  RH  046%=      5-min Rain = 0
KCR1 110913Z 25021G27KT 14/03 A2952 RMK A01 T01380025  RH  046%=      5-min Rain = 0
KCR1 110914Z 24021G30KT 14/03 A2952 RMK A01 T01380025  RH  046%=      5-min Rain = 0
KCR1 110915Z 24024G31KT 14/02 A2952 RMK A01 T01380024  RH  046%=      5-min Rain = 0
KCR1 110916Z 24020KT 14/03 A2952 RMK A01 T01390025  RH  046%=      5-min Rain = 0
KCR1 110917Z 24020KT 14/03 A2952 RMK A01 T01390025  RH  046%=      5-min Rain = 0
KCR1 110918Z 24020G26KT 14/02 A2952 RMK A01 T01390024  RH  046%=      5-min Rain = 0
KCR1 110919Z 24018KT 14/02 A2952 RMK A01 T01380024  RH  046%=      5-min Rain = 0
KCR1 110920Z 24021KT 14/02 A2952 RMK A01 T01380024  RH  046%=      5-min Rain = 0
KCR1 110921Z 24019G24KT 14/02 A2952 RMK A01 T01380024  RH  046%=      5-min Rain = 0
KCR1 110922Z 24017G24KT 14/03 A2952 RMK A01 T01380025  RH  046%=      5-min Rain = 0
KCR1 110923Z 24020KT 14/02 A2952 RMK A01 T01370023  RH  046%=      5-min Rain = 0
KCR1 110924Z 24019G26KT 14/02 A2952 RMK A01 T01370024  RH  046%=      5-min Rain = 0
KCR1 110925Z 24017KT 14/03 A2952 RMK A01 T01370025  RH  047%=      5-min Rain = 0
KCR1 110926Z 25020G26KT 14/02 A2952 RMK A01 T01360024  RH  047%=      5-min Rain = 0
KCR1 110927Z 24021G26KT 14/02 A2952 RMK A01 T01370023  RH  046%=      5-min Rain = 0
KCR1 110928Z 25020G27KT 14/02 A2952 RMK A01 T01380023  RH  046%=      5-min Rain = 0
KCR1 110929Z 25019G24KT 14/02 A2952 RMK A01 T01380023  RH  045%=      5-min Rain = 0
KCR1 110930Z 25019G26KT 14/02 A2952 RMK A01 T01380023  RH  046%=      5-min Rain = 0
KCR1 110931Z 25020G26KT 14/02 A2952 RMK A01 T01380022  RH  046%=      5-min Rain = 0
KCR1 110932Z 24020G28KT 14/02 A2952 RMK A01 T01380023  RH  046%=      5-min Rain = 0
KCR1 110933Z 25018G24KT 14/02 A2952 RMK A01 T01370022  RH  046%=      5-min Rain = 0
KCR1 110934Z 25018G24KT 14/02 A2952 RMK A01 T01370023  RH  046%=      5-min Rain = 0
KCR1 110935Z 25019KT 14/02 A2952 RMK A01 T01360023  RH  046%=      5-min Rain = 0
KCR1 110936Z 25019G26KT 14/02 A2952 RMK A01 T01360022  RH  046%=      5-min Rain = 0
KCR1 110937Z 25018G23KT 14/02 A2952 RMK A01 T01360023  RH  046%=      5-min Rain = 0
KCR1 110938Z 25018KT 14/02 A2952 RMK A01 T01360022  RH  046%=      5-min Rain = 0
KCR1 110939Z 24019KT 14/02 A2952 RMK A01 T01360022  RH  046%=      5-min Rain = 0
KCR1 110940Z 25017KT 14/02 A2952 RMK A01 T01360022  RH  046%=      5-min Rain = 0
KCR1 110941Z 25016G21KT 13/02 A2952 RMK A01 T01340022  RH  046%=      5-min Rain = 0
KCR1 110942Z 25015G21KT 13/02 A2952 RMK A01 T01330022  RH  047%=      5-min Rain = 0
KCR1 110943Z 24021G27KT 13/02 A2952 RMK A01 T01320022  RH  047%=      5-min Rain = 0
KCR1 110944Z 25017KT 13/02 A2951 RMK A01 T01330021  RH  047%=      5-min Rain = 0
KCR1 110945Z 25017G22KT 13/02 A2952 RMK A01 T01340022  RH  047%=      5-min Rain = 0
KCR1 110946Z 25018G23KT 13/02 A2952 RMK A01 T01340021  RH  046%=      5-min Rain = 0
KCR1 110947Z 25018KT 13/02 A2952 RMK A01 T01340021  RH  046%=      5-min Rain = 0
KCR1 110948Z 25017KT 13/02 A2952 RMK A01 T01340021  RH  046%=      5-min Rain = 0
KCR1 110949Z 25017KT 13/02 A2952 RMK A01 T01340021  RH  046%=      5-min Rain = 0
KCR1 110950Z 25014G21KT 13/02 A2952 RMK A01 T01330022  RH  047%=      5-min Rain = 0
KCR1 110951Z 25015G24KT 13/02 A2952 RMK A01 T01320022  RH  047%=      5-min Rain = 0
KCR1 110952Z 25018KT 13/02 A2952 RMK A01 T01310022  RH  047%=      5-min Rain = 0
KCR1 110953Z 25017G22KT 13/02 A2952 RMK A01 T01320021  RH  047%=      5-min Rain = 0
KCR1 110954Z 25015KT 13/02 A2952 RMK A01 T01310021  RH  047%=      5-min Rain = 0
KCR1 110955Z 25016G22KT 13/02 A2952 RMK A01 T01310021  RH  047%=      5-min Rain = 0
KCR1 110956Z 25019KT 13/02 A2952 RMK A01 T01320022  RH  047%=      5-min Rain = 0
KCR1 110957Z 25017G22KT 13/02 A2952 RMK A01 T01320021  RH  047%=      5-min Rain = 0
KCR1 110958Z 25016KT 13/02 A2952 RMK A01 T01310021  RH  047%=      5-min Rain = 0
KCR1 110959Z 25018KT 13/02 A2952 RMK A01 T01310021  RH  047%=      5-min Rain = 0
KCR1 111000Z 25014G19KT 13/02 A2952 RMK A01 T01310021  RH  047%=      5-min Rain = 0
KCR1 111001Z 25015KT 13/02 A2952 RMK A01 T01300021  RH  047%=      5-min Rain = 0
KCR1 111002Z 25016KT 13/02 A2952 RMK A01 T01290021  RH  048%=      5-min Rain = 0
KCR1 111003Z 25014KT 13/02 A2952 RMK A01 T01290021  RH  048%=      5-min Rain = 0
KCR1 111004Z 26013G18KT 13/02 A2952 RMK A01 T01290021  RH  048%=      5-min Rain = 0
KCR1 111005Z 25017KT 13/02 A2952 RMK A01 T01280020  RH  048%=      5-min Rain = 0
KCR1 111006Z 26016KT 13/02 A2952 RMK A01 T01290021  RH  048%=      5-min Rain = 0
KCR1 111007Z 25015G20KT 13/02 A2952 RMK A01 T01280020  RH  048%=      5-min Rain = 0
KCR1 111008Z 25017G23KT 13/02 A2952 RMK A01 T01280020  RH  048%=      5-min Rain = 0
KCR1 111009Z 25015KT 13/02 A2952 RMK A01 T01280020  RH  048%=      5-min Rain = 0
KCR1 111010Z 25014KT 13/02 A2951 RMK A01 T01270020  RH  048%=      5-min Rain = 0
KCR1 111011Z 26017KT 13/02 A2951 RMK A01 T01260020  RH  049%=      5-min Rain = 0
KCR1 111012Z 25015G20KT 13/02 A2951 RMK A01 T01260020  RH  048%=      5-min Rain = 0
KCR1 111013Z 25014G20KT 13/02 A2952 RMK A01 T01260020  RH  048%=      5-min Rain = 0
KCR1 111014Z 26013KT 13/02 A2951 RMK A01 T01250020  RH  049%=      5-min Rain = 0
KCR1 111015Z 25016KT 13/02 A2951 RMK A01 T01250020  RH  049%=      5-min Rain = 0
KCR1 111016Z 26015KT 13/02 A2951 RMK A01 T01250020  RH  049%=      5-min Rain = 0
KCR1 111017Z 26014KT 13/02 A2951 RMK A01 T01250020  RH  049%=      5-min Rain = 0
KCR1 111018Z 26016KT 13/02 A2951 RMK A01 T01250020  RH  049%=      5-min Rain = 0
KCR1 111019Z 26015KT 12/02 A2951 RMK A01 T01240020  RH  049%=      5-min Rain = 0
KCR1 111020Z 26015KT 12/02 A2951 RMK A01 T01240020  RH  049%=      5-min Rain = 0
KCR1 111021Z 26014KT 12/02 A2951 RMK A01 T01240020  RH  049%=      5-min Rain = 0
KCR1 111022Z 26015KT 12/02 A2951 RMK A01 T01230020  RH  049%=      5-min Rain = 0
KCR1 111023Z 26013KT 12/02 A2951 RMK A01 T01230019  RH  049%=      5-min Rain = 0
KCR1 111024Z 26015G20KT 12/02 A2951 RMK A01 T01220019  RH  049%=      5-min Rain = 0
KCR1 111025Z 26014KT 12/02 A2951 RMK A01 T01230019  RH  049%=      5-min Rain = 0
KCR1 111026Z 26015KT 12/02 A2951 RMK A01 T01230019  RH  049%=      5-min Rain = 0
KCR1 111027Z 26014KT 12/02 A2951 RMK A01 T01230019  RH  049%=      5-min Rain = 0
KCR1 111028Z 26015KT 12/02 A2951 RMK A01 T01230018  RH  049%=      5-min Rain = 0
KCR1 111029Z 27012KT 12/02 A2952 RMK A01 T01230018  RH  049%=      5-min Rain = 0
KCR1 111030Z 27013KT 12/02 A2952 RMK A01 T01230018  RH  049%=      5-min Rain = 0
KCR1 111031Z 27015KT 12/02 A2952 RMK A01 T01220018  RH  049%=      5-min Rain = 0
KCR1 111032Z 27013KT 12/02 A2952 RMK A01 T01220017  RH  049%=      5-min Rain = 0
KCR1 111033Z 28013G18KT 12/02 A2952 RMK A01 T01220017  RH  049%=      5-min Rain = 0
KCR1 111034Z 27011KT 12/02 A2952 RMK A01 T01220017  RH  048%=      5-min Rain = 0
KCR1 111035Z 28012KT 12/02 A2952 RMK A01 T01220017  RH  048%=      5-min Rain = 0
KCR1 111036Z 28012KT 12/02 A2952 RMK A01 T01220016  RH  048%=      5-min Rain = 0
KCR1 111037Z 28014KT 12/02 A2952 RMK A01 T01230015  RH  048%=      5-min Rain = 0
KCR1 111038Z 28012KT 12/01 A2952 RMK A01 T01240014  RH  047%=      5-min Rain = 0
KCR1 111039Z 28013G18KT 12/01 A2952 RMK A01 T01240014  RH  047%=      5-min Rain = 0
KCR1 111040Z 29013G18KT 12/01 A2953 RMK A01 T01240014  RH  047%=      5-min Rain = 0
KCR1 111041Z 29015G21KT 12/01 A2953 RMK A01 T01230014  RH  047%=      5-min Rain = 0
KCR1 111042Z 29020KT 12/01 A2953 RMK A01 T01230012  RH  046%=      5-min Rain = 0
KCR1 111043Z 30016G21KT 13/01 A2953 RMK A01 T01250011  RH  046%=      5-min Rain = 0
KCR1 111044Z 30017G23KT 13/01 A2953 RMK A01 T01250011  RH  046%=      5-min Rain = 0
KCR1 111045Z 30020KT 12/01 A2953 RMK A01 T01240010  RH  046%=      5-min Rain = 0
KCR1 111046Z 30019G28KT 12/01 A2953 RMK A01 T01240009  RH  045%=      5-min Rain = 0
KCR1 111047Z 31022G27KT 12/01 A2954 RMK A01 T01230008  RH  045%=      5-min Rain = 0
KCR1 111048Z 31021G27KT 12/01 A2954 RMK A01 T01230008  RH  045%=      5-min Rain = 0
KCR1 111049Z 32021G31KT 12/01 A2954 RMK A01 T01220007  RH  045%=      5-min Rain = 0
KCR1 111050Z 32024G30KT 12/01 A2954 RMK A01 T01200005  RH  045%=      5-min Rain = 0
KCR1 111051Z 31028G33KT 12/00 A2954 RMK A01 T01190004  RH  045%=      5-min Rain = 0
KCR1 111052Z 32025G31KT 12/00 A2954 RMK A01 T01180001  RH  045%=      5-min Rain = 0
KCR1 111053Z 32020G25KT 12/00 A2954 RMK A01 T01160001  RH  045%=      5-min Rain = 0
KCR1 111054Z 32020G26KT 11/00 A2954 RMK A01 T01140002  RH  046%=      5-min Rain = 0
KCR1 111055Z 33021G27KT 11/00 A2954 RMK A01 T01130001  RH  046%=      5-min Rain = 0
KCR1 111056Z 32019G27KT 11/00 A2955 RMK A01 T01110001  RH  047%=      5-min Rain = 0
KCR1 111057Z 32026G31KT 11/00 A2955 RMK A01 T01090001  RH  047%=      5-min Rain = 0
KCR1 111058Z 32024G31KT 11/00 A2955 RMK A01 T01080001  RH  048%=      5-min Rain = 0
KCR1 111059Z 33023G30KT 11/00 A2955 RMK A01 T01060001  RH  048%=      5-min Rain = 0
KCR1 111100Z 32028G39KT 11/00 A2955 RMK A01 T01050002  RH  049%=      5-min Rain = 0
KCR1 111101Z 32033G40KT 10/00 A2955 RMK A01 T01040003  RH  050%=      5-min Rain = 0
KCR1 111102Z 32029G34KT 10/01 A2955 RMK A01 T01020005  RH  051%=      5-min Rain = 0
KCR1 111103Z 32036G41KT 10/01 A2955 RMK A01 T01000006  RH  052%=      5-min Rain = 0
KCR1 111104Z 33033KT 10/01 A2955 RMK A01 T00980007  RH  053%=      5-min Rain = 0
KCR1 111105Z 33026G33KT 10/01 A2956 RMK A01 T00970008  RH  054%=      5-min Rain = 0
KCR1 111106Z 32027G35KT 10/01 A2956 RMK A01 T00950009  RH  055%=      5-min Rain = 0
KCR1 111107Z 33030G35KT 09/01 A2956 RMK A01 T00940009  RH  055%=      5-min Rain = 0
KCR1 111108Z 34031KT 09/01 A2956 RMK A01 T00930010  RH  056%=      5-min Rain = 0
KCR1 111109Z 33024G31KT 09/01 A2957 RMK A01 T00920010  RH  056%=      5-min Rain = 0
KCR1 111110Z 33022KT 09/01 A2957 RMK A01 T00910010  RH  057%=      5-min Rain = 0
KCR1 111111Z 33021G28KT 09/01 A2957 RMK A01 T00900011  RH  058%=      5-min Rain = 0
KCR1 111112Z 33027G34KT 09/01 A2957 RMK A01 T00890011  RH  058%=      5-min Rain = 0
KCR1 111113Z 33028G35KT 09/01 A2957 RMK A01 T00870011  RH  059%=      5-min Rain = 0
KCR1 111114Z 33032G41KT 09/01 A2957 RMK A01 T00860011  RH  059%=      5-min Rain = 0
KCR1 111115Z 33028KT 09/01 A2958 RMK A01 T00850011  RH  060%=      5-min Rain = 0
KCR1 111116Z 33030G37KT 08/01 A2958 RMK A01 T00830011  RH  060%=      5-min Rain = 0
KCR1 111117Z 33030G37KT 08/01 A2958 RMK A01 T00820011  RH  061%=      5-min Rain = 0
KCR1 111118Z 33030G36KT 08/01 A2958 RMK A01 T00810010  RH  061%=      5-min Rain = 0
KCR1 111119Z 33031G37KT 08/01 A2958 RMK A01 T00800010  RH  061%=      5-min Rain = 0
KCR1 111120Z 33031G41KT 08/01 A2958 RMK A01 T00790010  RH  062%=      5-min Rain = 0
KCR1 111121Z 33029G35KT 08/01 A2958 RMK A01 T00790010  RH  062%=      5-min Rain = 0
KCR1 111122Z 33031G39KT 08/01 A2959 RMK A01 T00790011  RH  062%=      5-min Rain = 0
KCR1 111123Z 33034G40KT 08/01 A2958 RMK A01 T00780010  RH  062%=      5-min Rain = 0
KCR1 111124Z 33029G34KT 08/01 A2958 RMK A01 T00780010  RH  062%=      5-min Rain = 0
KCR1 111125Z 33029G36KT 08/01 A2959 RMK A01 T00780010  RH  062%=      5-min Rain = 0
KCR1 111126Z 33032G41KT 08/01 A2959 RMK A01 T00780010  RH  062%=      5-min Rain = 0
KCR1 111127Z 33033G42KT 08/01 A2958 RMK A01 T00770010  RH  062%=      5-min Rain = 0
KCR1 111128Z 33033G44KT 08/01 A2958 RMK A01 T00760009  RH  062%=      5-min Rain = 0
KCR1 111129Z 34034KT 08/01 A2959 RMK A01 T00760009  RH  063%=      5-min Rain = 0
KCR1 111130Z 33033G44KT 08/01 A2959 RMK A01 T00760009  RH  063%=      5-min Rain = 0
KCR1 111131Z 34033G40KT 08/01 A2959 RMK A01 T00750008  RH  063%=      5-min Rain = 0
KCR1 111132Z 34031G40KT 07/01 A2959 RMK A01 T00740008  RH  063%=      5-min Rain = 0
KCR1 111133Z 34031G37KT 07/01 A2959 RMK A01 T00730008  RH  063%=      5-min Rain = 0
KCR1 111134Z 34030G40KT 07/01 A2959 RMK A01 T00730008  RH  063%=      5-min Rain = 0
KCR1 111135Z 33033G39KT 07/01 A2959 RMK A01 T00720007  RH  063%=      5-min Rain = 0
KCR1 111136Z 34026G33KT 07/01 A2959 RMK A01 T00720007  RH  063%=      5-min Rain = 0
KCR1 111137Z 33031G42KT 07/01 A2959 RMK A01 T00700006  RH  064%=      5-min Rain = 0
KCR1 111138Z 33033G38KT 07/01 A296 RMK A01 T00700005  RH  064%=      5-min Rain = 0
KCR1 111139Z 34039G47KT 07/00 A2959 RMK A01 T00690004  RH  063%=      5-min Rain = 0
KCR1 111140Z 33036G50KT 07/00 A296 RMK A01 T00690003  RH  063%=      5-min Rain = 0
KCR1 111141Z 33039G44KT 07/00 A296 RMK A01 T00680001  RH  062%=      5-min Rain = 0
KCR1 111142Z 33035G45KT 07/00 A296 RMK A01 T00680001  RH  062%=      5-min Rain = 0
KCR1 111143Z 33032G37KT 07/00 A296 RMK A01 T00670000  RH  063%=      5-min Rain = 0
KCR1 111144Z 34033G40KT 07/00 A2961 RMK A01 T006600-0  RH  063%=      5-min Rain = 0
KCR1 111145Z 33033G39KT 07/00 A2961 RMK A01 T006500-0  RH  063%=      5-min Rain = 0
KCR1 111146Z 33032G38KT 07/00 A2961 RMK A01 T006500-0  RH  063%=      5-min Rain = 0
KCR1 111147Z 34033G39KT 06/M00 A2961 RMK A01 T00641001  RH  063%=      5-min Rain = 0
KCR1 111148Z 34029G38KT 06/M00 A2961 RMK A01 T00641001  RH  063%=      5-min Rain = 0
KCR1 111149Z 34025G34KT 06/M00 A2962 RMK A01 T00641001  RH  063%=      5-min Rain = 0
KCR1 111150Z 34030G39KT 06/M00 A2962 RMK A01 T00631001  RH  064%=      5-min Rain = 0
KCR1 111151Z 34026KT 06/M00 A2962 RMK A01 T00631001  RH  064%=      5-min Rain = 0
KCR1 111152Z 34027G34KT 06/M00 A2962 RMK A01 T00621001  RH  064%=      5-min Rain = 0
KCR1 111153Z 34028G33KT 06/M00 A2963 RMK A01 T00621001  RH  064%=      5-min Rain = 0
KCR1 111154Z 34027G35KT 06/M00 A2963 RMK A01 T00621002  RH  064%=      5-min Rain = 0
KCR1 111155Z 35025KT 06/M00 A2963 RMK A01 T00611002  RH  064%=      5-min Rain = 0
KCR1 111156Z 34029G37KT 06/M00 A2963 RMK A01 T00611002  RH  064%=      5-min Rain = 0
KCR1 111157Z 34028KT 06/M00 A2964 RMK A01 T00601003  RH  064%=      5-min Rain = 0
KCR1 111158Z 35030G38KT 06/M00 A2964 RMK A01 T00601003  RH  064%=      5-min Rain = 0
KCR1 111159Z 34028KT 06/M01 A2964 RMK A01 T00591005  RH  063%=      5-min Rain = 0
KCR1 111200Z 34034KT 06/M01 A2964 RMK A01 T00581006  RH  063%=      5-min Rain = 0
KCR1 111201Z 35030G36KT 06/M01 A2965 RMK A01 T00581007  RH  063%=      5-min Rain = 0
KCR1 111202Z 35028G40KT 06/M01 A2965 RMK A01 T00581007  RH  063%=      5-min Rain = 0
KCR1 111203Z 35035KT 06/M01 A2965 RMK A01 T00571007  RH  063%=      5-min Rain = 0
KCR1 111204Z 35036G41KT 06/M01 A2965 RMK A01 T00571009  RH  063%=      5-min Rain = 0
KCR1 111205Z 35037G46KT 06/M01 A2965 RMK A01 T00561009  RH  063%=      5-min Rain = 0
KCR1 111206Z 35034G41KT 06/M01 A2965 RMK A01 T00561009  RH  063%=      5-min Rain = 0
KCR1 111207Z 34031G37KT 06/M01 A2966 RMK A01 T00561009  RH  063%=      5-min Rain = 0
KCR1 111208Z 34033G40KT 06/M01 A2966 RMK A01 T00551010  RH  063%=      5-min Rain = 0
KCR1 111209Z 35037G44KT 06/M01 A2966 RMK A01 T00551010  RH  063%=      5-min Rain = 0
KCR1 111210Z 34037G44KT 05/M01 A2966 RMK A01 T00541012  RH  062%=      5-min Rain = 0
KCR1 111211Z 35036G43KT 05/M01 A2966 RMK A01 T00531014  RH  062%=      5-min Rain = 0
KCR1 111212Z 34033G41KT 05/M01 A2967 RMK A01 T00521014  RH  062%=      5-min Rain = 0
KCR1 111213Z 34031G36KT 05/M01 A2967 RMK A01 T00521014  RH  063%=      5-min Rain = 0
KCR1 111214Z 34026G32KT 05/M01 A2968 RMK A01 T00511014  RH  063%=      5-min Rain = 0
KCR1 111215Z 35031G37KT 05/M01 A2968 RMK A01 T00511014  RH  063%=      5-min Rain = 0
KCR1 111216Z 35028KT 05/M02 A2968 RMK A01 T00501015  RH  063%=      5-min Rain = 0
KCR1 111217Z 35028G33KT 05/M02 A2969 RMK A01 T00491015  RH  063%=      5-min Rain = 0
KCR1 111218Z 35022G27KT 05/M02 A2969 RMK A01 T00491015  RH  063%=      5-min Rain = 0
KCR1 111219Z 35024KT 05/M02 A2969 RMK A01 T00481015  RH  063%=      5-min Rain = 0
KCR1 111220Z 35030G36KT 05/M02 A2969 RMK A01 T00481016  RH  063%=      5-min Rain = 0
KCR1 111221Z 35030G35KT 05/M02 A297 RMK A01 T00481016  RH  063%=      5-min Rain = 0
KCR1 111222Z 36034G40KT 05/M02 A297 RMK A01 T00481017  RH  063%=      5-min Rain = 0
KCR1 111223Z 35029G34KT 05/M02 A2971 RMK A01 T00471018  RH  063%=      5-min Rain = 0
KCR1 111224Z 35032G39KT 05/M02 A2971 RMK A01 T00471018  RH  063%=      5-min Rain = 0
KCR1 111225Z 35034KT 05/M02 A2971 RMK A01 T00471019  RH  063%=      5-min Rain = 0
KCR1 111226Z 35032KT 05/M02 A2971 RMK A01 T00471019  RH  062%=      5-min Rain = 0
KCR1 111227Z 35031G36KT 05/M02 A2971 RMK A01 T00461019  RH  062%=      5-min Rain = 0
KCR1 111228Z 35030G37KT 05/M02 A2972 RMK A01 T00461019  RH  063%=      5-min Rain = 0
KCR1 111229Z 35026G34KT 05/M02 A2972 RMK A01 T00461019  RH  063%=      5-min Rain = 0
KCR1 111230Z 35029G39KT 05/M02 A2972 RMK A01 T00451020  RH  063%=      5-min Rain = 0
KCR1 111231Z 35030KT 05/M02 A2972 RMK A01 T00451020  RH  063%=      5-min Rain = 0
KCR1 111232Z 35029G34KT 05/M02 A2972 RMK A01 T00451020  RH  062%=      5-min Rain = 0
KCR1 111233Z 35029KT 05/M02 A2973 RMK A01 T00461020  RH  062%=      5-min Rain = 0
KCR1 111234Z 35029G34KT 05/M02 A2973 RMK A01 T00451020  RH  062%=      5-min Rain = 0
KCR1 111235Z 35033G39KT 05/M02 A2973 RMK A01 T00451021  RH  062%=      5-min Rain = 0
KCR1 111236Z 35031G36KT 05/M02 A2973 RMK A01 T00451022  RH  062%=      5-min Rain = 0
KCR1 111237Z 36024G29KT 05/M02 A2973 RMK A01 T00451022  RH  062%=      5-min Rain = 0
KCR1 111238Z 35025G30KT 05/M02 A2974 RMK A01 T00451022  RH  062%=      5-min Rain = 0
KCR1 111239Z 35024G30KT 05/M02 A2974 RMK A01 T00451021  RH  062%=      5-min Rain = 0
KCR1 111240Z 35023KT 04/M02 A2974 RMK A01 T00441022  RH  062%=      5-min Rain = 0
KCR1 111241Z 35019KT 04/M02 A2974 RMK A01 T00441022  RH  062%=      5-min Rain = 0
KCR1 111242Z 35018G23KT 04/M02 A2974 RMK A01 T00441022  RH  062%=      5-min Rain = 0
KCR1 111243Z 35017G25KT 04/M02 A2974 RMK A01 T00431022  RH  063%=      5-min Rain = 0
KCR1 111244Z 35020KT 04/M02 A2974 RMK A01 T00421022  RH  063%=      5-min Rain = 0
KCR1 111245Z 34023KT 04/M02 A2974 RMK A01 T00421023  RH  063%=      5-min Rain = 0
KCR1 111246Z 34019G24KT 04/M02 A2974 RMK A01 T00431023  RH  062%=      5-min Rain = 0
KCR1 111247Z 35016KT 04/M02 A2975 RMK A01 T00431022  RH  063%=      5-min Rain = 0
KCR1 111248Z 35020KT 04/M02 A2975 RMK A01 T00421022  RH  063%=      5-min Rain = 0
KCR1 111249Z 34019KT 04/M02 A2975 RMK A01 T00421023  RH  063%=      5-min Rain = 0
KCR1 111250Z 35019KT 04/M02 A2975 RMK A01 T00431023  RH  062%=      5-min Rain = 0
KCR1 111251Z 34016KT 04/M02 A2975 RMK A01 T00431023  RH  062%=      5-min Rain = 0
KCR1 111252Z 34014KT 04/M02 A2975 RMK A01 T00421022  RH  063%=      5-min Rain = 0
KCR1 111253Z 34015KT 04/M02 A2976 RMK A01 T00421022  RH  063%=      5-min Rain = 0
KCR1 111254Z 34015KT 04/M02 A2976 RMK A01 T00421022  RH  063%=      5-min Rain = 0
KCR1 111255Z 34013KT 04/M02 A2976 RMK A01 T00421022  RH  063%=      5-min Rain = 0
KCR1 111256Z 33016G22KT 04/M02 A2976 RMK A01 T00421022  RH  063%=      5-min Rain = 0
KCR1 111257Z 33018G24KT 04/M02 A2976 RMK A01 T00421024  RH  062%=      5-min Rain = 0
KCR1 111258Z 34017G22KT 04/M02 A2976 RMK A01 T00421024  RH  062%=      5-min Rain = 0
KCR1 111259Z 34021KT 04/M03 A2977 RMK A01 T00411025  RH  062%=      5-min Rain = 0
KCR1 111300Z 35019G24KT 04/M03 A2977 RMK A01 T00401026  RH  062%=      5-min Rain = 0
KCR1 111301Z 34020G29KT 04/M03 A2978 RMK A01 T00401026  RH  062%=      5-min Rain = 0
KCR1 111302Z 35024KT 04/M03 A2978 RMK A01 T00401027  RH  062%=      5-min Rain = 0
KCR1 111303Z 34021G26KT 04/M03 A2978 RMK A01 T00391027  RH  062%=      5-min Rain = 0
KCR1 111304Z 34026G34KT 04/M03 A2978 RMK A01 T00391027  RH  062%=      5-min Rain = 0
KCR1 111305Z 34026G33KT 04/M03 A2978 RMK A01 T00391027  RH  062%=      5-min Rain = 0
KCR1 111306Z 35028G37KT 04/M03 A2978 RMK A01 T00391027  RH  062%=      5-min Rain = 0
KCR1 111307Z 35027KT 04/M03 A2979 RMK A01 T00381028  RH  062%=      5-min Rain = 0
KCR1 111308Z 35027KT 04/M03 A2979 RMK A01 T00391028  RH  062%=      5-min Rain = 0
KCR1 111309Z 35023KT 04/M03 A2979 RMK A01 T00381028  RH  062%=      5-min Rain = 0
KCR1 111310Z 35026G31KT 04/M03 A2979 RMK A01 T00381028  RH  062%=      5-min Rain = 0
KCR1 111311Z 35023KT 04/M03 A2979 RMK A01 T00381028  RH  062%=      5-min Rain = 0
KCR1 111312Z 36020KT 04/M03 A2979 RMK A01 T00381028  RH  062%=      5-min Rain = 0
KCR1 111313Z 35022KT 04/M03 A2979 RMK A01 T00381028  RH  062%=      5-min Rain = 0
KCR1 111314Z 34020G25KT 04/M03 A298 RMK A01 T00381028  RH  062%=      5-min Rain = 0
KCR1 111315Z 34021KT 04/M03 A298 RMK A01 T00381028  RH  062%=      5-min Rain = 0
KCR1 111316Z 35022G29KT 04/M03 A298 RMK A01 T00381028  RH  062%=      5-min Rain = 0
KCR1 111317Z 34024KT 04/M03 A298 RMK A01 T00381029  RH  062%=      5-min Rain = 0
KCR1 111318Z 35023KT 04/M03 A298 RMK A01 T00381030  RH  061%=      5-min Rain = 0
KCR1 111319Z 35019KT 04/M03 A298 RMK A01 T00381030  RH  061%=      5-min Rain = 0
KCR1 111320Z 34024G29KT 04/M03 A298 RMK A01 T00371030  RH  062%=      5-min Rain = 0
KCR1 111321Z 34022KT 04/M03 A298 RMK A01 T00371030  RH  061%=      5-min Rain = 0
KCR1 111322Z 34022G28KT 04/M03 A298 RMK A01 T00371031  RH  061%=      5-min Rain = 0
KCR1 111323Z 34021KT 04/M03 A298 RMK A01 T00371031  RH  061%=      5-min Rain = 0
KCR1 111324Z 34025G30KT 04/M03 A298 RMK A01 T00371031  RH  061%=      5-min Rain = 0
KCR1 111325Z 35025KT 04/M03 A2981 RMK A01 T00361032  RH  061%=      5-min Rain = 0
KCR1 111326Z 34022G31KT 04/M03 A2981 RMK A01 T00361033  RH  061%=      5-min Rain = 0
KCR1 111327Z 34026KT 04/M03 A2981 RMK A01 T00351033  RH  061%=      5-min Rain = 0
KCR1 111328Z 34024G29KT 03/M03 A2981 RMK A01 T00341034  RH  061%=      5-min Rain = 0
KCR1 111329Z 34022KT 03/M04 A2981 RMK A01 T00341035  RH  061%=      5-min Rain = 0
KCR1 111330Z 34022KT 03/M04 A2981 RMK A01 T00331035  RH  061%=      5-min Rain = 0
KCR1 111331Z 34023G30KT 03/M04 A2982 RMK A01 T00331036  RH  061%=      5-min Rain = 0
KCR1 111332Z 34030G35KT 03/M04 A2982 RMK A01 T00311038  RH  060%=      5-min Rain = 0
KCR1 111333Z 34025G31KT 03/M04 A2982 RMK A01 T00301040  RH  060%=      5-min Rain = 0
KCR1 111334Z 34024G31KT 03/M04 A2982 RMK A01 T00291039  RH  061%=      5-min Rain = 0
KCR1 111335Z 34026G31KT 03/M04 A2982 RMK A01 T00291039  RH  061%=      5-min Rain = 0
KCR1 111336Z 34029G36KT 03/M04 A2982 RMK A01 T00281040  RH  061%=      5-min Rain = 0
KCR1 111337Z 34025G31KT 03/M04 A2982 RMK A01 T00281041  RH  060%=      5-min Rain = 0
KCR1 111338Z 34029G37KT 03/M04 A2982 RMK A01 T00271041  RH  061%=      5-min Rain = 0
KCR1 111339Z 34031KT 03/M04 A2982 RMK A01 T00271041  RH  061%=      5-min Rain = 0
KCR1 111340Z 34029G34KT 03/M04 A2982 RMK A01 T00271042  RH  061%=      5-min Rain = 0
KCR1 111341Z 34021G26KT 03/M04 A2983 RMK A01 T00271042  RH  061%=      5-min Rain = 0
KCR1 111342Z 34020G25KT 03/M04 A2983 RMK A01 T00271041  RH  061%=      5-min Rain = 0
KCR1 111343Z 33027G33KT 03/M04 A2983 RMK A01 T00271041  RH  061%=      5-min Rain = 0
KCR1 111344Z 35028G35KT 03/M04 A2983 RMK A01 T00271041  RH  061%=      5-min Rain = 0
KCR1 111345Z 34025KT 03/M04 A2983 RMK A01 T00271042  RH  061%=      5-min Rain = 0
KCR1 111346Z 34022G29KT 03/M04 A2983 RMK A01 T00261042  RH  061%=      5-min Rain = 0
KCR1 111347Z 34019G26KT 03/M04 A2984 RMK A01 T00261041  RH  061%=      5-min Rain = 0
KCR1 111348Z 34023KT 03/M04 A2984 RMK A01 T00261041  RH  061%=      5-min Rain = 0
KCR1 111349Z 34023G28KT 03/M04 A2984 RMK A01 T00261041  RH  061%=      5-min Rain = 0
KCR1 111350Z 35022G27KT 03/M04 A2984 RMK A01 T00261041  RH  061%=      5-min Rain = 0
KCR1 111351Z 35023KT 03/M04 A2984 RMK A01 T00261041  RH  061%=      5-min Rain = 0
KCR1 111352Z 34020KT 03/M04 A2984 RMK A01 T00261041  RH  061%=      5-min Rain = 0
KCR1 111353Z 34016G21KT 03/M04 A2985 RMK A01 T00271040  RH  061%=      5-min Rain = 0
KCR1 111354Z 33021KT 03/M04 A2985 RMK A01 T00271040  RH  061%=      5-min Rain = 0
KCR1 111355Z 34021KT 03/M04 A2985 RMK A01 T00271041  RH  061%=      5-min Rain = 0
KCR1 111356Z 34022KT 03/M04 A2985 RMK A01 T00271041  RH  061%=      5-min Rain = 0
KCR1 111357Z 34020KT 03/M04 A2985 RMK A01 T00271041  RH  061%=      5-min Rain = 0
KCR1 111358Z 34020G28KT 03/M04 A2985 RMK A01 T00271041  RH  061%=      5-min Rain = 0
KCR1 111359Z 33027G32KT 03/M04 A2986 RMK A01 T00261043  RH  060%=      5-min Rain = 0
KCR1 111400Z 33026G31KT 02/M05 A2986 RMK A01 T00241048  RH  059%=      5-min Rain = 0
KCR1 111401Z 33024G33KT 02/M05 A2986 RMK A01 T00221051  RH  059%=      5-min Rain = 0
KCR1 111402Z 33021G27KT 02/M05 A2986 RMK A01 T00201052  RH  059%=      5-min Rain = 0
KCR1 111403Z 33028G33KT 02/M05 A2986 RMK A01 T00191053  RH  059%=      5-min Rain = 0
KCR1 111404Z 34025G30KT 02/M06 A2987 RMK A01 T00181055  RH  058%=      5-min Rain = 0
KCR1 111405Z 34021KT 02/M06 A2987 RMK A01 T00171055  RH  059%=      5-min Rain = 0
KCR1 111406Z 34024KT 02/M06 A2987 RMK A01 T00171055  RH  059%=      5-min Rain = 0
KCR1 111407Z 34023KT 02/M06 A2987 RMK A01 T00171056  RH  059%=      5-min Rain = 0
KCR1 111408Z 34023G28KT 02/M06 A2987 RMK A01 T00171056  RH  059%=      5-min Rain = 0
KCR1 111409Z 34028G33KT 02/M06 A2987 RMK A01 T00161057  RH  058%=      5-min Rain = 0
KCR1 111410Z 34028G34KT 02/M06 A2987 RMK A01 T00161059  RH  058%=      5-min Rain = 0
KCR1 111411Z 34026G34KT 02/M06 A2988 RMK A01 T00151059  RH  058%=      5-min Rain = 0
KCR1 111412Z 34023G28KT 02/M06 A2988 RMK A01 T00151059  RH  058%=      5-min Rain = 0
KCR1 111413Z 33030G35KT 02/M06 A2988 RMK A01 T00151060  RH  057%=      5-min Rain = 0
KCR1 111414Z 34029KT 01/M06 A2988 RMK A01 T00131063  RH  057%=      5-min Rain = 0
KCR1 111415Z 34025G30KT 01/M06 A2988 RMK A01 T00131064  RH  057%=      5-min Rain = 0
KCR1 111416Z 34027G33KT 01/M06 A2988 RMK A01 T00131064  RH  057%=      5-min Rain = 0
KCR1 111417Z 34027G35KT 01/M06 A2988 RMK A01 T00121064  RH  057%=      5-min Rain = 0
KCR1 111418Z 33026G32KT 01/M06 A2988 RMK A01 T00121064  RH  057%=      5-min Rain = 0
KCR1 111419Z 33033G38KT 01/M07 A2988 RMK A01 T00121066  RH  056%=      5-min Rain = 0
KCR1 111420Z 34026G31KT 01/M07 A2989 RMK A01 T00111066  RH  056%=      5-min Rain = 0
KCR1 111421Z 34030G37KT 01/M07 A2989 RMK A01 T00111066  RH  056%=      5-min Rain = 0
KCR1 111422Z 34029G34KT 01/M07 A2989 RMK A01 T00111066  RH  056%=      5-min Rain = 0
KCR1 111423Z 34025G30KT 01/M07 A2989 RMK A01 T00111067  RH  056%=      5-min Rain = 0
KCR1 111424Z 35024G29KT 01/M07 A2989 RMK A01 T00111066  RH  056%=      5-min Rain = 0
KCR1 111425Z 35026G32KT 01/M07 A2989 RMK A01 T00111066  RH  056%=      5-min Rain = 0
KCR1 111426Z 35028G35KT 01/M07 A299 RMK A01 T00111067  RH  056%=      5-min Rain = 0
KCR1 111427Z 35029KT 01/M07 A299 RMK A01 T00111067  RH  056%=      5-min Rain = 0
KCR1 111428Z 35027KT 01/M07 A299 RMK A01 T00111067  RH  056%=      5-min Rain = 0
KCR1 111429Z 35024KT 01/M07 A299 RMK A01 T00111067  RH  056%=      5-min Rain = 0
KCR1 111430Z 35024KT 01/M07 A299 RMK A01 T00111067  RH  056%=      5-min Rain = 0
KCR1 111431Z 35026G31KT 01/M07 A299 RMK A01 T00111066  RH  056%=      5-min Rain = 0
KCR1 111432Z 35024G31KT 01/M07 A299 RMK A01 T00111066  RH  056%=      5-min Rain = 0
KCR1 111433Z 35024KT 01/M07 A299 RMK A01 T00111067  RH  056%=      5-min Rain = 0
KCR1 111434Z 35026KT 01/M07 A2991 RMK A01 T00111067  RH  056%=      5-min Rain = 0
KCR1 111435Z 35025G30KT 01/M07 A2991 RMK A01 T00111067  RH  056%=      5-min Rain = 0
KCR1 111436Z 34024G29KT 01/M07 A2991 RMK A01 T00111067  RH  056%=      5-min Rain = 0
KCR1 111437Z 34026G32KT 01/M07 A2991 RMK A01 T00111067  RH  056%=      5-min Rain = 0
KCR1 111438Z 35028G34KT 01/M07 A2991 RMK A01 T00111067  RH  056%=      5-min Rain = 0
KCR1 111439Z 35029G34KT 01/M07 A2991 RMK A01 T00111067  RH  056%=      5-min Rain = 0
KCR1 111440Z 36032KT 01/M07 A2991 RMK A01 T00111067  RH  056%=      5-min Rain = 0
KCR1 111441Z 36029G38KT 01/M07 A2991 RMK A01 T00111067  RH  056%=      5-min Rain = 0
KCR1 111442Z 35029KT 01/M07 A2991 RMK A01 T00111067  RH  056%=      5-min Rain = 0
KCR1 111443Z 35027G33KT 01/M07 A2991 RMK A01 T00111067  RH  056%=      5-min Rain = 0
KCR1 111444Z 35024G30KT 01/M07 A2991 RMK A01 T00111067  RH  056%=      5-min Rain = 0
KCR1 111445Z 36025KT 01/M07 A2991 RMK A01 T00121066  RH  056%=      5-min Rain = 0
KCR1 111446Z 35023KT 01/M07 A2991 RMK A01 T00121066  RH  056%=      5-min Rain = 0
KCR1 111447Z 34019KT 01/M07 A2991 RMK A01 T00121066  RH  056%=      5-min Rain = 0
KCR1 111448Z 35027KT 01/M07 A2991 RMK A01 T00121066  RH  056%=      5-min Rain = 0
KCR1 111449Z 35029KT 01/M07 A2991 RMK A01 T00121066  RH  056%=      5-min Rain = 0
KCR1 111450Z 34026G34KT 01/M07 A2991 RMK A01 T00121066  RH  056%=      5-min Rain = 0
KCR1 111451Z 34025G31KT 01/M07 A2991 RMK A01 T00121066  RH  056%=      5-min Rain = 0
KCR1 111452Z 35026KT 01/M07 A2992 RMK A01 T00121065  RH  056%=      5-min Rain = 0
KCR1 111453Z 35026KT 01/M07 A2992 RMK A01 T00121066  RH  056%=      5-min Rain = 0
KCR1 111454Z 35020G25KT 01/M07 A2992 RMK A01 T00121066  RH  056%=      5-min Rain = 0
KCR1 111455Z 35026G33KT 01/M07 A2992 RMK A01 T00121065  RH  056%=      5-min Rain = 0
KCR1 111456Z 35030KT 01/M07 A2992 RMK A01 T00121065  RH  056%=      5-min Rain = 0
KCR1 111457Z 35027KT 01/M07 A2992 RMK A01 T00121066  RH  056%=      5-min Rain = 0
KCR1 111458Z 35022G27KT 01/M07 A2992 RMK A01 T00121065  RH  057%=      5-min Rain = 0
KCR1 111459Z 35024G29KT 01/M07 A2993 RMK A01 T00121065  RH  057%=      5-min Rain = 0
KCR1 111500Z 35024KT 01/M07 A2993 RMK A01 T00121065  RH  057%=      5-min Rain = 0
KCR1 111501Z 35023KT 01/M06 A2993 RMK A01 T00121064  RH  057%=      5-min Rain = 0
KCR1 111502Z 35024KT 01/M06 A2993 RMK A01 T00121063  RH  057%=      5-min Rain = 0
KCR1 111503Z 35022KT 01/M06 A2993 RMK A01 T00131063  RH  057%=      5-min Rain = 0
KCR1 111504Z 35025G32KT 01/M06 A2993 RMK A01 T00121062  RH  057%=      5-min Rain = 0
KCR1 111505Z 35029G34KT 01/M06 A2993 RMK A01 T00121061  RH  058%=      5-min Rain = 0
KCR1 111506Z 34025G32KT 01/M06 A2994 RMK A01 T00121060  RH  059%=      5-min Rain = 0
KCR1 111507Z 35028G33KT 01/M06 A2994 RMK A01 T00121059  RH  059%=      5-min Rain = 0
KCR1 111508Z 35027KT 01/M06 A2994 RMK A01 T00121059  RH  059%=      5-min Rain = 0
KCR1 111509Z 35027G32KT 01/M06 A2994 RMK A01 T00111058  RH  060%=      5-min Rain = 0
KCR1 111510Z 35029G34KT 01/M06 A2994 RMK A01 T00121058  RH  060%=      5-min Rain = 0
KCR1 111511Z 35031G39KT 01/M06 A2994 RMK A01 T00121058  RH  060%=      5-min Rain = 0
KCR1 111512Z 35025KT 01/M06 A2994 RMK A01 T00121058  RH  060%=      5-min Rain = 0
KCR1 111513Z 35025G30KT 01/M06 A2994 RMK A01 T00121057  RH  060%=      5-min Rain = 0
KCR1 111514Z 35031G37KT 01/M06 A2994 RMK A01 T00121057  RH  060%=      5-min Rain = 0
KCR1 111515Z 35029KT 01/M06 A2994 RMK A01 T00121057  RH  060%=      5-min Rain = 0
KCR1 111516Z 36033KT 01/M06 A2994 RMK A01 T00121057  RH  060%=      5-min Rain = 0
KCR1 111517Z 35031KT 01/M06 A2994 RMK A01 T00121057  RH  060%=      5-min Rain = 0
KCR1 111518Z 35029KT 01/M06 A2994 RMK A01 T00121057  RH  060%=      5-min Rain = 0
KCR1 111519Z 36030G35KT 01/M06 A2994 RMK A01 T00121056  RH  060%=      5-min Rain = 0
KCR1 111520Z 35027G32KT 01/M06 A2995 RMK A01 T00131056  RH  060%=      5-min Rain = 0
KCR1 111521Z 35030KT 01/M06 A2995 RMK A01 T00131055  RH  060%=      5-min Rain = 0
KCR1 111522Z 35025KT 01/M06 A2995 RMK A01 T00141055  RH  060%=      5-min Rain = 0
KCR1 111523Z 35025KT 01/M06 A2995 RMK A01 T00141055  RH  060%=      5-min Rain = 0
KCR1 111524Z 35027G36KT 02/M05 A2995 RMK A01 T00151054  RH  060%=      5-min Rain = 0
KCR1 111525Z 35032G37KT 02/M05 A2995 RMK A01 T00151054  RH  060%=      5-min Rain = 0
KCR1 111526Z 35027G32KT 02/M05 A2995 RMK A01 T00151054  RH  060%=      5-min Rain = 0
KCR1 111527Z 34027KT 02/M05 A2995 RMK A01 T00151054  RH  060%=      5-min Rain = 0
KCR1 111528Z 35026G33KT 02/M05 A2995 RMK A01 T00151054  RH  060%=      5-min Rain = 0
KCR1 111529Z 36029G35KT 02/M05 A2995 RMK A01 T00151054  RH  060%=      5-min Rain = 0
KCR1 111530Z 35029G34KT 02/M05 A2995 RMK A01 T00151053  RH  060%=      5-min Rain = 0
KCR1 111531Z 35026KT 02/M05 A2995 RMK A01 T00151053  RH  060%=      5-min Rain = 0
KCR1 111532Z 35025KT 02/M05 A2995 RMK A01 T00151053  RH  060%=      5-min Rain = 0
KCR1 111533Z 35022G28KT 02/M05 A2996 RMK A01 T00151053  RH  060%=      5-min Rain = 0
KCR1 111534Z 35021KT 02/M05 A2996 RMK A01 T00151053  RH  060%=      5-min Rain = 0
KCR1 111535Z 35021KT 02/M05 A2996 RMK A01 T00161053  RH  060%=      5-min Rain = 0
KCR1 111536Z 35022KT 02/M05 A2996 RMK A01 T00161054  RH  060%=      5-min Rain = 0
KCR1 111537Z 33023G28KT 02/M05 A2996 RMK A01 T00151054  RH  060%=      5-min Rain = 0
KCR1 111538Z 34021KT 01/M06 A2996 RMK A01 T00141056  RH  060%=      5-min Rain = 0
KCR1 111539Z 34023G28KT 01/M06 A2997 RMK A01 T00141056  RH  060%=      5-min Rain = 0
KCR1 111540Z 34021G26KT 01/M06 A2997 RMK A01 T00131057  RH  060%=      5-min Rain = 0
KCR1 111541Z 35025G33KT 01/M06 A2997 RMK A01 T00121057  RH  060%=      5-min Rain = 0
KCR1 111542Z 35027G33KT 01/M06 A2997 RMK A01 T00121059  RH  059%=      5-min Rain = 0
KCR1 111543Z 34022G27KT 01/M06 A2997 RMK A01 T00101060  RH  059%=      5-min Rain = 0
KCR1 111544Z 34026KT 01/M06 A2998 RMK A01 T00101060  RH  060%=      5-min Rain = 0
KCR1 111545Z 34022G28KT 01/M06 A2998 RMK A01 T00101061  RH  059%=      5-min Rain = 0
KCR1 111546Z 35025G31KT 01/M06 A2998 RMK A01 T00101061  RH  059%=      5-min Rain = 0
KCR1 111547Z 35027G33KT 01/M06 A2998 RMK A01 T00091062  RH  059%=      5-min Rain = 0
KCR1 111548Z 35027G33KT 01/M06 A2998 RMK A01 T00081063  RH  059%=      5-min Rain = 0
KCR1 111549Z 35024G30KT 01/M06 A2998 RMK A01 T00081062  RH  059%=      5-min Rain = 0
KCR1 111550Z 34025KT 01/M06 A2998 RMK A01 T00091062  RH  059%=      5-min Rain = 0
KCR1 111551Z 35025KT 01/M06 A2998 RMK A01 T00091063  RH  059%=      5-min Rain = 0
KCR1 111552Z 34026G33KT 01/M06 A2998 RMK A01 T00091063  RH  058%=      5-min Rain = 0
KCR1 111553Z 35028KT 01/M06 A2998 RMK A01 T00101063  RH  058%=      5-min Rain = 0
KCR1 111554Z 35026KT 01/M06 A2998 RMK A01 T00101063  RH  058%=      5-min Rain = 0
KCR1 111555Z 35023G28KT 01/M06 A2998 RMK A01 T00111062  RH  058%=      5-min Rain = 0
KCR1 111556Z 35025KT 01/M06 A2998 RMK A01 T00131062  RH  058%=      5-min Rain = 0
KCR1 111557Z 35024KT 01/M06 A2998 RMK A01 T00141062  RH  057%=      5-min Rain = 0
KCR1 111558Z 35025G30KT 02/M06 A2998 RMK A01 T00151061  RH  057%=      5-min Rain = 0
KCR1 111559Z 35021KT 02/M06 A2999 RMK A01 T00161061  RH  057%=      5-min Rain = 0
KCR1 111600Z 34021G26KT 02/M06 A2999 RMK A01 T00191058  RH  057%=      5-min Rain = 0
KCR1 111601Z 35025G32KT 02/M06 A2999 RMK A01 T00201059  RH  056%=      5-min Rain = 0
KCR1 111602Z 35025G31KT 02/M06 A2999 RMK A01 T00211059  RH  056%=      5-min Rain = 0
KCR1 111603Z 34032G37KT 02/M06 A2999 RMK A01 T00211060  RH  055%=      5-min Rain = 0
KCR1 111604Z 34030KT 02/M06 A2999 RMK A01 T00191062  RH  055%=      5-min Rain = 0
KCR1 111605Z 35027G32KT 02/M06 A2999 RMK A01 T00191060  RH  056%=      5-min Rain = 0
KCR1 111606Z 35032G39KT 02/M06 A2999 RMK A01 T00201061  RH  055%=      5-min Rain = 0
KCR1 111607Z 35029G35KT 02/M06 A30 RMK A01 T00191062  RH  055%=      5-min Rain = 0
KCR1 111608Z 34030G37KT 02/M06 A30 RMK A01 T00201061  RH  055%=      5-min Rain = 0
KCR1 111609Z 34027G34KT 02/M06 A30 RMK A01 T00201061  RH  055%=      5-min Rain = 0
KCR1 111610Z 35028G35KT 02/M06 A30 RMK A01 T00221060  RH  055%=      5-min Rain = 0
KCR1 111611Z 35027KT 02/M06 A3001 RMK A01 T00231059  RH  054%=      5-min Rain = 0
KCR1 111612Z 35027G33KT 02/M06 A3001 RMK A01 T00241060  RH  054%=      5-min Rain = 0
KCR1 111613Z 34028G33KT 02/M06 A3001 RMK A01 T00241061  RH  054%=      5-min Rain = 0
KCR1 111614Z 35031G38KT 02/M06 A3001 RMK A01 T00231061  RH  054%=      5-min Rain = 0
KCR1 111615Z 34032G40KT 02/M06 A3001 RMK A01 T00241061  RH  054%=      5-min Rain = 0
KCR1 111616Z 34030G36KT 02/M06 A3001 RMK A01 T00231062  RH  054%=      5-min Rain = 0
KCR1 111617Z 35031G36KT 02/M06 A3001 RMK A01 T00211063  RH  054%=      5-min Rain = 0
KCR1 111618Z 34031G36KT 02/M06 A3001 RMK A01 T00191064  RH  054%=      5-min Rain = 0
KCR1 111619Z 35027G32KT 02/M06 A3001 RMK A01 T00191063  RH  055%=      5-min Rain = 0
KCR1 111620Z 34026G31KT 02/M06 A3001 RMK A01 T00201062  RH  054%=      5-min Rain = 0
KCR1 111621Z 34026G31KT 02/M06 A3001 RMK A01 T00211062  RH  054%=      5-min Rain = 0
KCR1 111622Z 34025G32KT 02/M06 A3001 RMK A01 T00211062  RH  054%=      5-min Rain = 0
KCR1 111623Z 34029G34KT 02/M06 A3001 RMK A01 T00231061  RH  054%=      5-min Rain = 0
KCR1 111624Z 34028KT 02/M06 A3002 RMK A01 T00221061  RH  054%=      5-min Rain = 0
KCR1 111625Z 35026KT 02/M06 A3002 RMK A01 T00221061  RH  054%=      5-min Rain = 0
KCR1 111626Z 34024G30KT 02/M06 A3002 RMK A01 T00211062  RH  054%=      5-min Rain = 0
KCR1 111627Z 34026G31KT 02/M06 A3002 RMK A01 T00211061  RH  055%=      5-min Rain = 0
KCR1 111628Z 34026G34KT 02/M06 A3002 RMK A01 T00201061  RH  055%=      5-min Rain = 0
KCR1 111629Z 34026G31KT 02/M06 A3002 RMK A01 T00201062  RH  055%=      5-min Rain = 0
KCR1 111630Z 35026G33KT 02/M06 A3002 RMK A01 T00191062  RH  055%=      5-min Rain = 0
KCR1 111631Z 35021KT 02/M06 A3002 RMK A01 T00191062  RH  055%=      5-min Rain = 0
KCR1 111632Z 34020G25KT 02/M06 A3003 RMK A01 T00201061  RH  055%=      5-min Rain = 0
KCR1 111633Z 35021KT 02/M06 A3003 RMK A01 T00221061  RH  055%=      5-min Rain = 0
KCR1 111634Z 34024KT 02/M06 A3003 RMK A01 T00231060  RH  054%=      5-min Rain = 0
KCR1 111635Z 34022KT 02/M06 A3003 RMK A01 T00221062  RH  054%=      5-min Rain = 0
KCR1 111636Z 34022KT 02/M06 A3003 RMK A01 T00221062  RH  054%=      5-min Rain = 0
KCR1 111637Z 34024KT 02/M06 A3003 RMK A01 T00211063  RH  054%=      5-min Rain = 0
KCR1 111638Z 34022G31KT 02/M06 A3003 RMK A01 T00211062  RH  054%=      5-min Rain = 0
KCR1 111639Z 34025KT 02/M06 A3003 RMK A01 T00211063  RH  054%=      5-min Rain = 0
KCR1 111640Z 34026G31KT 02/M06 A3003 RMK A01 T00211064  RH  053%=      5-min Rain = 0
KCR1 111641Z 35025G32KT 02/M06 A3004 RMK A01 T00211064  RH  053%=      5-min Rain = 0
KCR1 111642Z 35026KT 02/M06 A3003 RMK A01 T00211064  RH  053%=      5-min Rain = 0
KCR1 111643Z 34022KT 02/M07 A3003 RMK A01 T00201065  RH  053%=      5-min Rain = 0
KCR1 111644Z 34021KT 02/M06 A3004 RMK A01 T00201064  RH  054%=      5-min Rain = 0
KCR1 111645Z 34022G27KT 02/M06 A3004 RMK A01 T00221063  RH  053%=      5-min Rain = 0
KCR1 111646Z 34021KT 02/M06 A3004 RMK A01 T00241062  RH  053%=      5-min Rain = 0
KCR1 111647Z 33025KT 02/M06 A3004 RMK A01 T00231063  RH  053%=      5-min Rain = 0
KCR1 111648Z 34029G34KT 02/M06 A3004 RMK A01 T00211064  RH  053%=      5-min Rain = 0
KCR1 111649Z 34023G31KT 02/M06 A3004 RMK A01 T00201064  RH  054%=      5-min Rain = 0
KCR1 111650Z 34027KT 02/M06 A3004 RMK A01 T00221062  RH  054%=      5-min Rain = 0
KCR1 111651Z 34028KT 02/M06 A3004 RMK A01 T00231063  RH  053%=      5-min Rain = 0
KCR1 111652Z 34028KT 02/M07 A3004 RMK A01 T00211065  RH  053%=      5-min Rain = 0
KCR1 111653Z 34021G26KT 02/M07 A3004 RMK A01 T00191065  RH  053%=      5-min Rain = 0
KCR1 111654Z 33024G30KT 02/M06 A3004 RMK A01 T00201064  RH  054%=      5-min Rain = 0
KCR1 111655Z 33026G32KT 02/M07 A3004 RMK A01 T00201065  RH  054%=      5-min Rain = 0
KCR1 111656Z 33028KT 02/M07 A3004 RMK A01 T00191065  RH  053%=      5-min Rain = 0
KCR1 111657Z 34025KT 02/M07 A3005 RMK A01 T00191065  RH  053%=      5-min Rain = 0
KCR1 111658Z 34026G32KT 02/M07 A3005 RMK A01 T00211065  RH  053%=      5-min Rain = 0
KCR1 111659Z 35027KT 02/M07 A3005 RMK A01 T00211065  RH  053%=      5-min Rain = 0
KCR1 111700Z 33025G32KT 02/M07 A3005 RMK A01 T00191067  RH  053%=      5-min Rain = 0
KCR1 111701Z 34023G28KT 02/M07 A3005 RMK A01 T00181067  RH  053%=      5-min Rain = 0
KCR1 111702Z 34023G28KT 02/M07 A3005 RMK A01 T00191066  RH  053%=      5-min Rain = 0
KCR1 111703Z 34027KT 02/M07 A3006 RMK A01 T00211066  RH  053%=      5-min Rain = 0
KCR1 111704Z 34028G33KT 02/M07 A3006 RMK A01 T00201068  RH  052%=      5-min Rain = 0
KCR1 111705Z 33029G34KT 02/M07 A3005 RMK A01 T00201068  RH  052%=      5-min Rain = 0
KCR1 111706Z 34028G35KT 02/M07 A3005 RMK A01 T00201069  RH  052%=      5-min Rain = 0
KCR1 111707Z 34027G33KT 02/M07 A3006 RMK A01 T00221067  RH  052%=      5-min Rain = 0
KCR1 111708Z 34026G35KT 02/M07 A3005 RMK A01 T00231067  RH  051%=      5-min Rain = 0
KCR1 111709Z 34027G32KT 02/M07 A3005 RMK A01 T00231067  RH  051%=      5-min Rain = 0
KCR1 111710Z 34028G33KT 02/M07 A3006 RMK A01 T00241068  RH  051%=      5-min Rain = 0
KCR1 111711Z 35027G32KT 02/M07 A3006 RMK A01 T00241068  RH  050%=      5-min Rain = 0
KCR1 111712Z 35026G37KT 03/M07 A3006 RMK A01 T00251068  RH  050%=      5-min Rain = 0
KCR1 111713Z 35024G29KT 03/M07 A3006 RMK A01 T00261067  RH  050%=      5-min Rain = 0
KCR1 111714Z 34024G31KT 03/M07 A3006 RMK A01 T00271067  RH  050%=      5-min Rain = 0
KCR1 111715Z 35032G37KT 03/M07 A3006 RMK A01 T00281066  RH  050%=      5-min Rain = 0
KCR1 111716Z 35027KT 03/M07 A3006 RMK A01 T00291065  RH  050%=      5-min Rain = 0
KCR1 111717Z 36033G38KT 03/M06 A3006 RMK A01 T00321063  RH  050%=      5-min Rain = 0
KCR1 111718Z 35033G42KT 03/M07 A3006 RMK A01 T00311065  RH  049%=      5-min Rain = 0
KCR1 111719Z 35031G37KT 03/M07 A3006 RMK A01 T00291066  RH  049%=      5-min Rain = 0
KCR1 111720Z 35032G38KT 03/M07 A3006 RMK A01 T00291066  RH  050%=      5-min Rain = 0
KCR1 111721Z 34029KT 03/M07 A3006 RMK A01 T00291067  RH  049%=      5-min Rain = 0
KCR1 111722Z 34030G35KT 03/M07 A3006 RMK A01 T00291067  RH  049%=      5-min Rain = 0
KCR1 111723Z 35030G36KT 03/M07 A3006 RMK A01 T00301067  RH  049%=      5-min Rain = 0
KCR1 111724Z 35031KT 03/M07 A3006 RMK A01 T00301066  RH  049%=      5-min Rain = 0
KCR1 111725Z 35030KT 03/M07 A3006 RMK A01 T00311067  RH  049%=      5-min Rain = 0
KCR1 111726Z 34028KT 03/M07 A3007 RMK A01 T00321065  RH  049%=      5-min Rain = 0
KCR1 111727Z 35028G33KT 03/M07 A3007 RMK A01 T00331067  RH  048%=      5-min Rain = 0
KCR1 111728Z 35028G33KT 03/M07 A3006 RMK A01 T00331066  RH  048%=      5-min Rain = 0
KCR1 111729Z 36027G32KT 03/M07 A3007 RMK A01 T00331068  RH  048%=      5-min Rain = 0
KCR1 111730Z 35028G35KT 03/M07 A3007 RMK A01 T00321068  RH  048%=      5-min Rain = 0
KCR1 111731Z 36025G32KT 03/M07 A3007 RMK A01 T00321068  RH  048%=      5-min Rain = 0
KCR1 111732Z 36026G32KT 03/M07 A3007 RMK A01 T00331067  RH  048%=      5-min Rain = 0
KCR1 111733Z 35025G30KT 03/M07 A3007 RMK A01 T00331067  RH  048%=      5-min Rain = 0
KCR1 111734Z 34021KT 03/M07 A3007 RMK A01 T00341067  RH  047%=      5-min Rain = 0
KCR1 111735Z 34023KT 03/M07 A3007 RMK A01 T00341068  RH  047%=      5-min Rain = 0
KCR1 111736Z 35028KT 04/M07 A3007 RMK A01 T00351068  RH  047%=      5-min Rain = 0
KCR1 111737Z 35028KT 03/M07 A3007 RMK A01 T00331070  RH  047%=      5-min Rain = 0
KCR1 111738Z 35029G34KT 03/M07 A3007 RMK A01 T00321070  RH  047%=      5-min Rain = 0
KCR1 111739Z 36027KT 03/M07 A3007 RMK A01 T00311071  RH  047%=      5-min Rain = 0
KCR1 111740Z 35029G34KT 03/M07 A3007 RMK A01 T00321070  RH  047%=      5-min Rain = 0
KCR1 111741Z 36032KT 03/M07 A3007 RMK A01 T00331071  RH  047%=      5-min Rain = 0
KCR1 111742Z 35028G38KT 03/M07 A3007 RMK A01 T00321072  RH  047%=      5-min Rain = 0
KCR1 111743Z 34027KT 03/M07 A3007 RMK A01 T00321072  RH  046%=      5-min Rain = 0
KCR1 111744Z 35026KT 03/M07 A3007 RMK A01 T00311073  RH  046%=      5-min Rain = 0
KCR1 111745Z 00030KT 03/M07 A3007 RMK A01 T00321073  RH  046%=      5-min Rain = 0
KCR1 111746Z 00030G36KT 03/M07 A3007 RMK A01 T00321073  RH  046%=      5-min Rain = 0
KCR1 111747Z 36031KT 03/M07 A3007 RMK A01 T00331074  RH  045%=      5-min Rain = 0
KCR1 111748Z 36030KT 03/M08 A3007 RMK A01 T00311076  RH  045%=      5-min Rain = 0
KCR1 111749Z 36028KT 03/M08 A3007 RMK A01 T00301076  RH  046%=      5-min Rain = 0
KCR1 111750Z 00028KT 03/M08 A3007 RMK A01 T00311075  RH  046%=      5-min Rain = 0
KCR1 111751Z 36027KT 03/M08 A3007 RMK A01 T00321075  RH  046%=      5-min Rain = 0
KCR1 111752Z 35028KT 03/M07 A3007 RMK A01 T00331074  RH  045%=      5-min Rain = 0
KCR1 111753Z 00026KT 03/M07 A3007 RMK A01 T00341074  RH  045%=      5-min Rain = 0
KCR1 111754Z 35028KT 04/M07 A3007 RMK A01 T00371072  RH  045%=      5-min Rain = 0
KCR1 111755Z 36027G33KT 04/M07 A3007 RMK A01 T00371074  RH  044%=      5-min Rain = 0
KCR1 111756Z 35028G33KT 04/M08 A3007 RMK A01 T00351075  RH  044%=      5-min Rain = 0
KCR1 111757Z 35023G28KT 04/M08 A3007 RMK A01 T00351075  RH  045%=      5-min Rain = 0
KCR1 111758Z 00026G33KT 04/M07 A3007 RMK A01 T00351074  RH  045%=      5-min Rain = 0
KCR1 111759Z 35022KT 04/M08 A3007 RMK A01 T00361075  RH  044%=      5-min Rain = 0
KCR1 111800Z 35024KT 04/M08 A3008 RMK A01 T00351075  RH  044%=      5-min Rain = 0
KCR1 111801Z 35024KT 04/M08 A3008 RMK A01 T00351076  RH  044%=      5-min Rain = 0
KCR1 111802Z 35022G28KT 03/M08 A3008 RMK A01 T00341076  RH  044%=      5-min Rain = 0
KCR1 111803Z 34027G33KT 03/M08 A3007 RMK A01 T00341076  RH  044%=      5-min Rain = 0
KCR1 111804Z 35025KT 03/M08 A3008 RMK A01 T00331077  RH  044%=      5-min Rain = 0
KCR1 111805Z 35023KT 03/M08 A3008 RMK A01 T00331077  RH  044%=      5-min Rain = 0
KCR1 111806Z 34020G26KT 03/M08 A3008 RMK A01 T00341078  RH  044%=      5-min Rain = 0
KCR1 111807Z 33021KT 03/M08 A3008 RMK A01 T00341078  RH  044%=      5-min Rain = 0
KCR1 111808Z 34023G28KT 03/M08 A3008 RMK A01 T00341079  RH  043%=      5-min Rain = 0
KCR1 111809Z 35022KT 03/M08 A3008 RMK A01 T00341080  RH  043%=      5-min Rain = 0
KCR1 111810Z 36025G32KT 04/M08 A3008 RMK A01 T00351078  RH  043%=      5-min Rain = 0
KCR1 111811Z 35025G33KT 04/M08 A3008 RMK A01 T00371078  RH  043%=      5-min Rain = 0
KCR1 111812Z 35027KT 04/M08 A3008 RMK A01 T00391077  RH  042%=      5-min Rain = 0
KCR1 111813Z 34025KT 04/M08 A3008 RMK A01 T00391079  RH  042%=      5-min Rain = 0
KCR1 111814Z 35026G31KT 04/M08 A3008 RMK A01 T00391080  RH  042%=      5-min Rain = 0
KCR1 111815Z 35026G31KT 04/M08 A3008 RMK A01 T00381081  RH  042%=      5-min Rain = 0
KCR1 111816Z 34026G32KT 04/M08 A3008 RMK A01 T00381080  RH  042%=      5-min Rain = 0
KCR1 111817Z 34029G35KT 04/M08 A3008 RMK A01 T00391081  RH  041%=      5-min Rain = 0
KCR1 111818Z 35027KT 04/M08 A3008 RMK A01 T00391081  RH  041%=      5-min Rain = 0
KCR1 111819Z 35026KT 04/M08 A3008 RMK A01 T00401080  RH  041%=      5-min Rain = 0
KCR1 111820Z 00026G31KT 04/M08 A3008 RMK A01 T00401080  RH  041%=      5-min Rain = 0
KCR1 111821Z 35027KT 04/M08 A3008 RMK A01 T00411080  RH  041%=      5-min Rain = 0
KCR1 111822Z 35023KT 04/M08 A3008 RMK A01 T00391081  RH  041%=      5-min Rain = 0
KCR1 111823Z 35023KT 04/M08 A3008 RMK A01 T00371083  RH  041%=      5-min Rain = 0
KCR1 111824Z 35022G29KT 04/M08 A3009 RMK A01 T00371082  RH  041%=      5-min Rain = 0
KCR1 111825Z 34026G31KT 04/M08 A3008 RMK A01 T00371082  RH  042%=      5-min Rain = 0
KCR1 111826Z 34024G29KT 04/M08 A3008 RMK A01 T00371081  RH  042%=      5-min Rain = 0
KCR1 111827Z 34027G34KT 04/M08 A3009 RMK A01 T00371081  RH  042%=      5-min Rain = 0
KCR1 111828Z 35029KT 04/M08 A3009 RMK A01 T00361082  RH  042%=      5-min Rain = 0
KCR1 111829Z 35029G34KT 04/M08 A3009 RMK A01 T00351083  RH  042%=      5-min Rain = 0
KCR1 111830Z 35026KT 04/M08 A3009 RMK A01 T00351083  RH  042%=      5-min Rain = 0
KCR1 111831Z 35025KT 04/M08 A3009 RMK A01 T00361081  RH  042%=      5-min Rain = 0
KCR1 111832Z 00025KT 04/M08 A3009 RMK A01 T00381081  RH  042%=      5-min Rain = 0
KCR1 111833Z 35023KT 04/M08 A3009 RMK A01 T00381082  RH  041%=      5-min Rain = 0
KCR1 111834Z 35026G33KT 04/M08 A3009 RMK A01 T00401081  RH  041%=      5-min Rain = 0
KCR1 111835Z 34026G33KT 04/M08 A3009 RMK A01 T00421081  RH  040%=      5-min Rain = 0
KCR1 111836Z 34025KT 04/M08 A3009 RMK A01 T00431081  RH  040%=      5-min Rain = 0
KCR1 111837Z 34025G30KT 04/M08 A3009 RMK A01 T00441082  RH  040%=      5-min Rain = 0
KCR1 111838Z 35026G32KT 04/M08 A3009 RMK A01 T00441082  RH  039%=      5-min Rain = 0
KCR1 111839Z 35027KT 04/M08 A3009 RMK A01 T00441083  RH  039%=      5-min Rain = 0
KCR1 111840Z 35028G34KT 04/M09 A3009 RMK A01 T00421085  RH  039%=      5-min Rain = 0
KCR1 111841Z 34028G34KT 04/M08 A3009 RMK A01 T00421084  RH  039%=      5-min Rain = 0
KCR1 111842Z 34029KT 04/M08 A3009 RMK A01 T00431083  RH  039%=      5-min Rain = 0
KCR1 111843Z 34026G31KT 04/M08 A3009 RMK A01 T00431084  RH  039%=      5-min Rain = 0
KCR1 111844Z 34024KT 05/M08 A3009 RMK A01 T00471081  RH  039%=      5-min Rain = 0
KCR1 111845Z 35025KT 05/M08 A3009 RMK A01 T00511081  RH  038%=      5-min Rain = 0
KCR1 111846Z 34023G30KT 05/M08 A3009 RMK A01 T00511083  RH  037%=      5-min Rain = 0
KCR1 111847Z 34027KT 05/M08 A3009 RMK A01 T00511083  RH  037%=      5-min Rain = 0
KCR1 111848Z 34026KT 05/M08 A3009 RMK A01 T00521084  RH  037%=      5-min Rain = 0
KCR1 111849Z 35026G33KT 05/M08 A3009 RMK A01 T00521084  RH  037%=      5-min Rain = 0
KCR1 111850Z 34028KT 05/M08 A3009 RMK A01 T00531084  RH  037%=      5-min Rain = 0
KCR1 111851Z 34025G32KT 06/M08 A3009 RMK A01 T00551084  RH  036%=      5-min Rain = 0
KCR1 111852Z 35026KT 06/M08 A3009 RMK A01 T00571084  RH  036%=      5-min Rain = 0
KCR1 111853Z 35027G32KT 06/M09 A3009 RMK A01 T00561086  RH  035%=      5-min Rain = 0
KCR1 111854Z 35030G35KT 06/M09 A3009 RMK A01 T00561086  RH  035%=      5-min Rain = 0
KCR1 111855Z 34030KT 06/M09 A3009 RMK A01 T00551089  RH  035%=      5-min Rain = 0
KCR1 111856Z 34025G30KT 05/M09 A3009 RMK A01 T00541089  RH  035%=      5-min Rain = 0
KCR1 111857Z 34025G30KT 05/M09 A3009 RMK A01 T00531089  RH  035%=      5-min Rain = 0
KCR1 111858Z 34027KT 06/M09 A3009 RMK A01 T00551088  RH  035%=      5-min Rain = 0
KCR1 111859Z 34023KT 06/M09 A3009 RMK A01 T00561089  RH  034%=      5-min Rain = 0
KCR1 111900Z 34024G32KT 06/M09 A3009 RMK A01 T00581088  RH  034%=      5-min Rain = 0
KCR1 111901Z 34029G34KT 06/M09 A3009 RMK A01 T00601089  RH  033%=      5-min Rain = 0
KCR1 111902Z 34025KT 06/M09 A3009 RMK A01 T00581091  RH  033%=      5-min Rain = 0
KCR1 111903Z 34028G34KT 06/M09 A3009 RMK A01 T00591090  RH  034%=      5-min Rain = 0
KCR1 111904Z 35027KT 06/M09 A3009 RMK A01 T00571093  RH  033%=      5-min Rain = 0
KCR1 111905Z 34026KT 06/M09 A3009 RMK A01 T00571091  RH  034%=      5-min Rain = 0
KCR1 111906Z 34024KT 06/M09 A3009 RMK A01 T00591091  RH  033%=      5-min Rain = 0
KCR1 111907Z 34025KT 06/M09 A3009 RMK A01 T00591091  RH  033%=      5-min Rain = 0
KCR1 111908Z 34023G29KT 06/M09 A3009 RMK A01 T00611091  RH  033%=      5-min Rain = 0
KCR1 111909Z 34022G32KT 06/M09 A3009 RMK A01 T00631090  RH  033%=      5-min Rain = 0
KCR1 111910Z 34025KT 07/M09 A3009 RMK A01 T00651089  RH  032%=      5-min Rain = 0
KCR1 111911Z 35028KT 07/M09 A3009 RMK A01 T00651090  RH  032%=      5-min Rain = 0
KCR1 111912Z 35029G36KT 07/M09 A3009 RMK A01 T00651090  RH  032%=      5-min Rain = 0
KCR1 111913Z 34027G33KT 06/M09 A3009 RMK A01 T00621093  RH  032%=      5-min Rain = 0
KCR1 111914Z 34026G31KT 06/M09 A3009 RMK A01 T00611094  RH  032%=      5-min Rain = 0
KCR1 111915Z 34029KT 06/M09 A3009 RMK A01 T00601094  RH  032%=      5-min Rain = 0
KCR1 111916Z 35027G33KT 06/M09 A3009 RMK A01 T00591094  RH  032%=      5-min Rain = 0
KCR1 111917Z 35029G37KT 06/M10 A3008 RMK A01 T00601095  RH  032%=      5-min Rain = 0
KCR1 111918Z 35028G34KT 06/M10 A3009 RMK A01 T00601096  RH  032%=      5-min Rain = 0
KCR1 111919Z 36030G37KT 06/M10 A3009 RMK A01 T00601097  RH  032%=      5-min Rain = 0
KCR1 111920Z 35030KT 06/M10 A3008 RMK A01 T00591098  RH  031%=      5-min Rain = 0
KCR1 111921Z 35026KT 06/M10 A3009 RMK A01 T00581098  RH  032%=      5-min Rain = 0
KCR1 111922Z 35025KT 06/M10 A3009 RMK A01 T00601095  RH  032%=      5-min Rain = 0
KCR1 111923Z 35024KT 06/M10 A3009 RMK A01 T00621095  RH  032%=      5-min Rain = 0
KCR1 111924Z 35022KT 06/M10 A3008 RMK A01 T00611096  RH  032%=      5-min Rain = 0
KCR1 111925Z 36024G32KT 06/M09 A3009 RMK A01 T00611094  RH  032%=      5-min Rain = 0
KCR1 111926Z 35028KT 06/M10 A3008 RMK A01 T00631096  RH  031%=      5-min Rain = 0
KCR1 111927Z 34030KT 06/M10 A3008 RMK A01 T00611098  RH  031%=      5-min Rain = 0
KCR1 111928Z 35027G33KT 06/M10 A3008 RMK A01 T00581100  RH  031%=      5-min Rain = 0
KCR1 111929Z 35027KT 06/M10 A3008 RMK A01 T00571099  RH  032%=      5-min Rain = 0
KCR1 111930Z 34027KT 06/M10 A3008 RMK A01 T00571099  RH  032%=      5-min Rain = 0
KCR1 111931Z 34029G35KT 06/M10 A3008 RMK A01 T00581099  RH  031%=      5-min Rain = 0
KCR1 111932Z 34028KT 06/M10 A3008 RMK A01 T00571101  RH  031%=      5-min Rain = 0
KCR1 111933Z 34025KT 06/M10 A3008 RMK A01 T00551101  RH  031%=      5-min Rain = 0
KCR1 111934Z 34024G31KT 06/M10 A3008 RMK A01 T00551100  RH  032%=      5-min Rain = 0
KCR1 111935Z 34027KT 06/M10 A3008 RMK A01 T00561100  RH  032%=      5-min Rain = 0
KCR1 111936Z 34024G29KT 06/M10 A3008 RMK A01 T00561100  RH  031%=      5-min Rain = 0
KCR1 111937Z 34026KT 06/M10 A3008 RMK A01 T00561100  RH  032%=      5-min Rain = 0
KCR1 111938Z 35027KT 06/M10 A3008 RMK A01 T00561101  RH  031%=      5-min Rain = 0
KCR1 111939Z 35026G31KT 06/M10 A3008 RMK A01 T00561100  RH  031%=      5-min Rain = 0
KCR1 111940Z 34023KT 06/M10 A3008 RMK A01 T00561100  RH  032%=      5-min Rain = 0
KCR1 111941Z 34027G33KT 06/M10 A3009 RMK A01 T00571100  RH  031%=      5-min Rain = 0
KCR1 111942Z 34027G32KT 06/M10 A3008 RMK A01 T00581101  RH  031%=      5-min Rain = 0
KCR1 111943Z 35028KT 06/M10 A3009 RMK A01 T00581101  RH  031%=      5-min Rain = 0
KCR1 111944Z 35028KT 06/M10 A3009 RMK A01 T00581101  RH  031%=      5-min Rain = 0
KCR1 111945Z 34027G33KT 06/M10 A3009 RMK A01 T00581101  RH  031%=      5-min Rain = 0
KCR1 111946Z 35030KT 06/M10 A3009 RMK A01 T00601101  RH  031%=      5-min Rain = 0
KCR1 111947Z 36027KT 06/M10 A3009 RMK A01 T00591102  RH  030%=      5-min Rain = 0
KCR1 111948Z 35026KT 06/M10 A3009 RMK A01 T00591101  RH  031%=      5-min Rain = 0
KCR1 111949Z 35026KT 06/M10 A3009 RMK A01 T00601101  RH  030%=      5-min Rain = 0
KCR1 111950Z 35026KT 06/M10 A3009 RMK A01 T00611102  RH  030%=      5-min Rain = 0
KCR1 111951Z 35026KT 06/M10 A3009 RMK A01 T00621100  RH  030%=      5-min Rain = 0
KCR1 111952Z 34024KT 06/M10 A3009 RMK A01 T00621100  RH  030%=      5-min Rain = 0
KCR1 111953Z 34023KT 06/M10 A3009 RMK A01 T00631101  RH  030%=      5-min Rain = 0
KCR1 111954Z 34023KT 06/M10 A3009 RMK A01 T00631101  RH  030%=      5-min Rain = 0
KCR1 111955Z 34024KT 06/M10 A3008 RMK A01 T00631101  RH  030%=      5-min Rain = 0
KCR1 111956Z 35023G29KT 06/M10 A3008 RMK A01 T00641101  RH  030%=      5-min Rain = 0
KCR1 111957Z 34026G32KT 07/M10 A3008 RMK A01 T00651101  RH  029%=      5-min Rain = 0
KCR1 111958Z 34026KT 07/M10 A3009 RMK A01 T00671100  RH  029%=      5-min Rain = 0
KCR1 111959Z 35025KT 07/M10 A3009 RMK A01 T00701099  RH  029%=      5-min Rain = 0
KCR1 112000Z 34026G32KT 07/M10 A3009 RMK A01 T00721099  RH  029%=      5-min Rain = 0
KCR1 112001Z 34026G31KT 07/M10 A3009 RMK A01 T00721101  RH  028%=      5-min Rain = 0
KCR1 112002Z 34024KT 07/M10 A3009 RMK A01 T00721101  RH  028%=      5-min Rain = 0
KCR1 112003Z 34027KT 07/M10 A3009 RMK A01 T00741100  RH  028%=      5-min Rain = 0
KCR1 112004Z 34027KT 07/M10 A3009 RMK A01 T00721103  RH  028%=      5-min Rain = 0
KCR1 112005Z 34020G27KT 07/M10 A3009 RMK A01 T00701103  RH  028%=      5-min Rain = 0
KCR1 112006Z 35029KT 07/M10 A3009 RMK A01 T00701102  RH  028%=      5-min Rain = 0
KCR1 112007Z 34026G31KT 07/M10 A3009 RMK A01 T00701104  RH  028%=      5-min Rain = 0
KCR1 112008Z 34025G30KT 07/M10 A3009 RMK A01 T00691103  RH  028%=      5-min Rain = 0
KCR1 112009Z 34025G30KT 07/M10 A3009 RMK A01 T00701104  RH  028%=      5-min Rain = 0
KCR1 112010Z 34026G31KT 07/M10 A3009 RMK A01 T00711104  RH  028%=      5-min Rain = 0
KCR1 112011Z 34025KT 07/M10 A3009 RMK A01 T00721103  RH  028%=      5-min Rain = 0
KCR1 112012Z 34024G29KT 07/M10 A3009 RMK A01 T00741101  RH  027%=      5-min Rain = 0
KCR1 112013Z 35026G31KT 08/M10 A3009 RMK A01 T00781100  RH  027%=      5-min Rain = 0
KCR1 112014Z 34026G31KT 08/M10 A3009 RMK A01 T00771102  RH  027%=      5-min Rain = 0
KCR1 112015Z 35027G32KT 08/M10 A3009 RMK A01 T00761102  RH  027%=      5-min Rain = 0
KCR1 112016Z 35026G31KT 08/M10 A3009 RMK A01 T00751103  RH  027%=      5-min Rain = 0
KCR1 112017Z 35027G33KT 08/M10 A3009 RMK A01 T00751102  RH  027%=      5-min Rain = 0
KCR1 112018Z 34027KT 08/M10 A3009 RMK A01 T00761103  RH  027%=      5-min Rain = 0
KCR1 112019Z 34024KT 08/M10 A3009 RMK A01 T00751103  RH  027%=      5-min Rain = 0
KCR1 112020Z 35025G33KT 08/M10 A301 RMK A01 T00751102  RH  027%=      5-min Rain = 0
KCR1 112021Z 34025G33KT 07/M10 A301 RMK A01 T00741103  RH  027%=      5-min Rain = 0
KCR1 112022Z 35025KT 08/M10 A301 RMK A01 T00751103  RH  027%=      5-min Rain = 0
KCR1 112023Z 36028G35KT 08/M10 A301 RMK A01 T00761102  RH  027%=      5-min Rain = 0
KCR1 112024Z 36028KT 08/M10 A301 RMK A01 T00751103  RH  027%=      5-min Rain = 0
KCR1 112025Z 35026KT 08/M10 A301 RMK A01 T00751104  RH  027%=      5-min Rain = 0
KCR1 112026Z 35024G29KT 07/M10 A301 RMK A01 T00741103  RH  027%=      5-min Rain = 0
KCR1 112027Z 35024G29KT 08/M10 A301 RMK A01 T00771101  RH  027%=      5-min Rain = 0
KCR1 112028Z 35023KT 08/M10 A301 RMK A01 T00801101  RH  027%=      5-min Rain = 0
KCR1 112029Z 35024G30KT 08/M10 A301 RMK A01 T00811101  RH  026%=      5-min Rain = 0
KCR1 112030Z 34023G29KT 08/M10 A301 RMK A01 T00821102  RH  026%=      5-min Rain = 0
KCR1 112031Z 35022KT 08/M10 A301 RMK A01 T00821100  RH  026%=      5-min Rain = 0
KCR1 112032Z 36025KT 08/M10 A301 RMK A01 T00821101  RH  026%=      5-min Rain = 0
KCR1 112033Z 35024KT 08/M10 A3009 RMK A01 T00811101  RH  026%=      5-min Rain = 0
KCR1 112034Z 34019KT 08/M10 A301 RMK A01 T00791102  RH  026%=      5-min Rain = 0
KCR1 112035Z 35028KT 08/M10 A3009 RMK A01 T00801101  RH  027%=      5-min Rain = 0
KCR1 112036Z 35029KT 08/M10 A3009 RMK A01 T00801103  RH  026%=      5-min Rain = 0
KCR1 112037Z 35026KT 08/M11 A301 RMK A01 T00771106  RH  026%=      5-min Rain = 0
KCR1 112038Z 01024KT 08/M10 A301 RMK A01 T00781103  RH  027%=      5-min Rain = 0
KCR1 112039Z 35027KT 08/M10 A301 RMK A01 T00791103  RH  026%=      5-min Rain = 0
KCR1 112040Z 36023KT 08/M10 A301 RMK A01 T00781103  RH  027%=      5-min Rain = 0
KCR1 112041Z 36026KT 08/M10 A301 RMK A01 T00791101  RH  027%=      5-min Rain = 0
KCR1 112042Z 34028KT 08/M10 A301 RMK A01 T00801102  RH  026%=      5-min Rain = 0
KCR1 112043Z 34025G31KT 08/M10 A301 RMK A01 T00801102  RH  026%=      5-min Rain = 0
KCR1 112044Z 34023KT 08/M10 A301 RMK A01 T00791104  RH  026%=      5-min Rain = 0
KCR1 112045Z 34019KT 08/M10 A301 RMK A01 T00801103  RH  026%=      5-min Rain = 0
KCR1 112046Z 35022KT 08/M10 A301 RMK A01 T00821102  RH  026%=      5-min Rain = 0
KCR1 112047Z 35023KT 08/M10 A301 RMK A01 T00831102  RH  026%=      5-min Rain = 0
KCR1 112048Z 35023KT 08/M10 A301 RMK A01 T00831103  RH  026%=      5-min Rain = 0
KCR1 112049Z 34024G31KT 09/M10 A301 RMK A01 T00851102  RH  025%=      5-min Rain = 0
KCR1 112050Z 34026G34KT 08/M11 A301 RMK A01 T00841105  RH  025%=      5-min Rain = 0
KCR1 112051Z 34027G32KT 08/M11 A301 RMK A01 T00801107  RH  025%=      5-min Rain = 0
KCR1 112052Z 35024KT 08/M11 A301 RMK A01 T00791106  RH  026%=      5-min Rain = 0
KCR1 112053Z 34026G32KT 08/M11 A301 RMK A01 T00791105  RH  026%=      5-min Rain = 0
KCR1 112054Z 33025KT 08/M11 A301 RMK A01 T00801105  RH  026%=      5-min Rain = 0
KCR1 112055Z 33022KT 08/M11 A301 RMK A01 T00811105  RH  026%=      5-min Rain = 0
KCR1 112056Z 34027KT 08/M11 A301 RMK A01 T00811105  RH  026%=      5-min Rain = 0
KCR1 112057Z 34026G34KT 08/M11 A301 RMK A01 T00811105  RH  026%=      5-min Rain = 0
KCR1 112058Z 34024G29KT 08/M11 A301 RMK A01 T00811106  RH  025%=      5-min Rain = 0
KCR1 112059Z 34024G31KT 08/M11 A3011 RMK A01 T00811106  RH  025%=      5-min Rain = 0
KCR1 112100Z 36024KT 08/M10 A3011 RMK A01 T00831103  RH  026%=      5-min Rain = 0
KCR1 112101Z 35028G33KT 09/M10 A3011 RMK A01 T00851102  RH  025%=      5-min Rain = 0
KCR1 112102Z 35025KT 08/M10 A3011 RMK A01 T00841103  RH  025%=      5-min Rain = 0
KCR1 112103Z 35027KT 08/M10 A3011 RMK A01 T00841104  RH  025%=      5-min Rain = 0
KCR1 112104Z 35027G32KT 08/M11 A3011 RMK A01 T00841105  RH  025%=      5-min Rain = 0
KCR1 112105Z 36027KT 08/M10 A3011 RMK A01 T00841104  RH  025%=      5-min Rain = 0
KCR1 112106Z 35027G32KT 09/M10 A3011 RMK A01 T00861104  RH  025%=      5-min Rain = 0
KCR1 112107Z 35025G30KT 09/M10 A3011 RMK A01 T00851104  RH  025%=      5-min Rain = 0
KCR1 112108Z 34026KT 09/M10 A3011 RMK A01 T00851104  RH  025%=      5-min Rain = 0
KCR1 112109Z 35023G28KT 08/M11 A3011 RMK A01 T00841105  RH  025%=      5-min Rain = 0
KCR1 112110Z 34020KT 08/M10 A3011 RMK A01 T00831104  RH  025%=      5-min Rain = 0
KCR1 112111Z 34021KT 09/M10 A3011 RMK A01 T00851102  RH  025%=      5-min Rain = 0
KCR1 112112Z 35021G27KT 09/M10 A3012 RMK A01 T00871102  RH  025%=      5-min Rain = 0
KCR1 112113Z 35028G34KT 09/M10 A3012 RMK A01 T00881103  RH  025%=      5-min Rain = 0
KCR1 112114Z 34033KT 09/M11 A3012 RMK A01 T00851109  RH  024%=      5-min Rain = 0
KCR1 112115Z 35032KT 08/M11 A3011 RMK A01 T00801112  RH  024%=      5-min Rain = 0
KCR1 112116Z 35029KT 08/M11 A3012 RMK A01 T00801110  RH  025%=      5-min Rain = 0
KCR1 112117Z 36035G40KT 08/M11 A3012 RMK A01 T00801110  RH  025%=      5-min Rain = 0
KCR1 112118Z 35029G34KT 08/M11 A3012 RMK A01 T00801111  RH  025%=      5-min Rain = 0
KCR1 112119Z 35030KT 08/M11 A3012 RMK A01 T00811110  RH  025%=      5-min Rain = 0
KCR1 112120Z 35028G34KT 08/M11 A3012 RMK A01 T00821110  RH  024%=      5-min Rain = 0
KCR1 112121Z 36027KT 08/M11 A3012 RMK A01 T00811111  RH  024%=      5-min Rain = 0
KCR1 112122Z 35022G27KT 08/M11 A3012 RMK A01 T00811108  RH  025%=      5-min Rain = 0
KCR1 112123Z 35025G31KT 08/M11 A3012 RMK A01 T00841106  RH  025%=      5-min Rain = 0
KCR1 112124Z 35023G28KT 08/M11 A3012 RMK A01 T00841107  RH  025%=      5-min Rain = 0
KCR1 112125Z 35024G29KT 09/M11 A3012 RMK A01 T00851106  RH  025%=      5-min Rain = 0
KCR1 112126Z 35026G31KT 08/M11 A3012 RMK A01 T00841107  RH  025%=      5-min Rain = 0
KCR1 112127Z 34027KT 08/M11 A3012 RMK A01 T00831107  RH  025%=      5-min Rain = 0
KCR1 112128Z 35028KT 08/M11 A3012 RMK A01 T00811110  RH  025%=      5-min Rain = 0
KCR1 112129Z 34024G29KT 08/M11 A3012 RMK A01 T00801110  RH  025%=      5-min Rain = 0
KCR1 112130Z 34021KT 08/M11 A3012 RMK A01 T00801107  RH  025%=      5-min Rain = 0
KCR1 112131Z 34027G33KT 08/M11 A3012 RMK A01 T00821106  RH  025%=      5-min Rain = 0
KCR1 112132Z 35029KT 08/M11 A3012 RMK A01 T00831109  RH  024%=      5-min Rain = 0
KCR1 112133Z 00028KT 08/M11 A3012 RMK A01 T00811110  RH  024%=      5-min Rain = 0
KCR1 112134Z 36025KT 08/M11 A3013 RMK A01 T00801109  RH  025%=      5-min Rain = 0
KCR1 112135Z 01027KT 08/M11 A3013 RMK A01 T00811108  RH  025%=      5-min Rain = 0
KCR1 112136Z 00028KT 08/M11 A3013 RMK A01 T00811109  RH  025%=      5-min Rain = 0
KCR1 112137Z 35024G31KT 08/M11 A3013 RMK A01 T00811107  RH  025%=      5-min Rain = 0
KCR1 112138Z 36027KT 08/M11 A3013 RMK A01 T00811107  RH  025%=      5-min Rain = 0
KCR1 112139Z 35027KT 08/M11 A3013 RMK A01 T00821108  RH  025%=      5-min Rain = 0
KCR1 112140Z 00025KT 08/M11 A3013 RMK A01 T00821108  RH  025%=      5-min Rain = 0
KCR1 112141Z 36023KT 08/M11 A3013 RMK A01 T00821107  RH  025%=      5-min Rain = 0
KCR1 112142Z 34023KT 08/M11 A3013 RMK A01 T00831105  RH  025%=      5-min Rain = 0
KCR1 112143Z 35021KT 08/M11 A3013 RMK A01 T00831107  RH  025%=      5-min Rain = 0
KCR1 112144Z 35021KT 08/M11 A3013 RMK A01 T00831105  RH  025%=      5-min Rain = 0
KCR1 112145Z 35021KT 08/M10 A3013 RMK A01 T00831104  RH  025%=      5-min Rain = 0
KCR1 112146Z 35023KT 08/M11 A3013 RMK A01 T00841105  RH  025%=      5-min Rain = 0
KCR1 112147Z 35021KT 08/M11 A3013 RMK A01 T00831107  RH  025%=      5-min Rain = 0
KCR1 112148Z 34021KT 08/M11 A3013 RMK A01 T00831106  RH  025%=      5-min Rain = 0
KCR1 112149Z 34020KT 08/M11 A3013 RMK A01 T00831107  RH  025%=      5-min Rain = 0
KCR1 112150Z 34021KT 08/M11 A3013 RMK A01 T00831107  RH  025%=      5-min Rain = 0
KCR1 112151Z 35021G27KT 08/M11 A3013 RMK A01 T00831106  RH  025%=      5-min Rain = 0
KCR1 112152Z 34022KT 08/M11 A3014 RMK A01 T00821106  RH  025%=      5-min Rain = 0
KCR1 112153Z 34024KT 08/M11 A3014 RMK A01 T00821107  RH  025%=      5-min Rain = 0
KCR1 112154Z 34025G30KT 08/M11 A3014 RMK A01 T00811109  RH  025%=      5-min Rain = 0
KCR1 112155Z 34025G32KT 08/M11 A3014 RMK A01 T00791109  RH  025%=      5-min Rain = 0
KCR1 112156Z 34023G29KT 08/M11 A3014 RMK A01 T00791108  RH  025%=      5-min Rain = 0
KCR1 112157Z 35024G29KT 08/M11 A3014 RMK A01 T00791108  RH  025%=      5-min Rain = 0
KCR1 112158Z 34025KT 08/M11 A3014 RMK A01 T00791108  RH  025%=      5-min Rain = 0
KCR1 112159Z 35023KT 08/M11 A3014 RMK A01 T00781108  RH  025%=      5-min Rain = 0
KCR1 112200Z 35025G30KT 08/M11 A3014 RMK A01 T00781108  RH  025%=      5-min Rain = 0
KCR1 112201Z 35026G32KT 08/M11 A3014 RMK A01 T00781108  RH  025%=      5-min Rain = 0
KCR1 112202Z 35026KT 08/M11 A3014 RMK A01 T00771109  RH  025%=      5-min Rain = 0
KCR1 112203Z 36025KT 08/M11 A3014 RMK A01 T00771109  RH  026%=      5-min Rain = 0
KCR1 112204Z 36025KT 08/M11 A3014 RMK A01 T00771108  RH  026%=      5-min Rain = 0
KCR1 112205Z 36023KT 08/M11 A3014 RMK A01 T00771109  RH  025%=      5-min Rain = 0
KCR1 112206Z 36023G28KT 08/M11 A3015 RMK A01 T00781109  RH  025%=      5-min Rain = 0
KCR1 112207Z 35022KT 08/M11 A3015 RMK A01 T00781109  RH  025%=      5-min Rain = 0
KCR1 112208Z 36024KT 08/M11 A3015 RMK A01 T00791110  RH  025%=      5-min Rain = 0
KCR1 112209Z 35023KT 08/M11 A3015 RMK A01 T00791109  RH  025%=      5-min Rain = 0
KCR1 112210Z 35023KT 08/M11 A3015 RMK A01 T00791109  RH  025%=      5-min Rain = 0
KCR1 112211Z 34025G31KT 08/M11 A3015 RMK A01 T00791109  RH  025%=      5-min Rain = 0
KCR1 112212Z 34025KT 08/M11 A3015 RMK A01 T00781109  RH  025%=      5-min Rain = 0
KCR1 112213Z 35025KT 08/M11 A3015 RMK A01 T00781108  RH  025%=      5-min Rain = 0
KCR1 112214Z 35024KT 08/M11 A3015 RMK A01 T00771110  RH  025%=      5-min Rain = 0
KCR1 112215Z 34023KT 08/M11 A3015 RMK A01 T00761109  RH  026%=      5-min Rain = 0
KCR1 112216Z 34022KT 08/M11 A3015 RMK A01 T00761109  RH  026%=      5-min Rain = 0
KCR1 112217Z 34023G28KT 08/M11 A3015 RMK A01 T00761108  RH  026%=      5-min Rain = 0
KCR1 112218Z 33024G29KT 08/M11 A3015 RMK A01 T00771108  RH  026%=      5-min Rain = 0
KCR1 112219Z 33024G30KT 08/M11 A3015 RMK A01 T00771108  RH  026%=      5-min Rain = 0
KCR1 112220Z 33026KT 08/M11 A3015 RMK A01 T00761109  RH  026%=      5-min Rain = 0
KCR1 112221Z 34023KT 08/M11 A3015 RMK A01 T00751110  RH  026%=      5-min Rain = 0
KCR1 112222Z 34026G33KT 08/M11 A3015 RMK A01 T00751109  RH  026%=      5-min Rain = 0
KCR1 112223Z 34024KT 07/M11 A3015 RMK A01 T00741111  RH  026%=      5-min Rain = 0
KCR1 112224Z 34018G23KT 07/M11 A3015 RMK A01 T00741109  RH  026%=      5-min Rain = 0
KCR1 112225Z 34022KT 08/M11 A3015 RMK A01 T00751108  RH  026%=      5-min Rain = 0
KCR1 112226Z 34024G30KT 07/M11 A3015 RMK A01 T00741109  RH  026%=      5-min Rain = 0
KCR1 112227Z 34027KT 07/M11 A3015 RMK A01 T00741110  RH  026%=      5-min Rain = 0
KCR1 112228Z 34024KT 07/M11 A3016 RMK A01 T00741111  RH  025%=      5-min Rain = 0
KCR1 112229Z 35028G33KT 07/M11 A3016 RMK A01 T00741110  RH  026%=      5-min Rain = 0
KCR1 112230Z 34026KT 07/M11 A3016 RMK A01 T00731111  RH  026%=      5-min Rain = 0
KCR1 112231Z 34024KT 07/M11 A3016 RMK A01 T00731111  RH  026%=      5-min Rain = 0
KCR1 112232Z 35024KT 07/M11 A3016 RMK A01 T00741111  RH  026%=      5-min Rain = 0
KCR1 112233Z 35025KT 07/M11 A3016 RMK A01 T00731111  RH  026%=      5-min Rain = 0
KCR1 112234Z 35025KT 07/M11 A3016 RMK A01 T00721111  RH  026%=      5-min Rain = 0
KCR1 112235Z 35024KT 07/M11 A3016 RMK A01 T00711111  RH  026%=      5-min Rain = 0
KCR1 112236Z 35021KT 07/M11 A3016 RMK A01 T00711110  RH  026%=      5-min Rain = 0
KCR1 112237Z 35021KT 07/M11 A3016 RMK A01 T00711109  RH  026%=      5-min Rain = 0
KCR1 112238Z 34019KT 07/M11 A3016 RMK A01 T00711108  RH  027%=      5-min Rain = 0
KCR1 112239Z 34020G26KT 07/M11 A3016 RMK A01 T00711108  RH  027%=      5-min Rain = 0
KCR1 112240Z 34025G30KT 07/M11 A3016 RMK A01 T00711108  RH  027%=      5-min Rain = 0
KCR1 112241Z 34022G27KT 07/M11 A3016 RMK A01 T00701110  RH  027%=      5-min Rain = 0
KCR1 112242Z 34022KT 07/M11 A3017 RMK A01 T00701109  RH  027%=      5-min Rain = 0
KCR1 112243Z 35026G31KT 07/M11 A3016 RMK A01 T00701109  RH  027%=      5-min Rain = 0
KCR1 112244Z 34023KT 07/M11 A3017 RMK A01 T00691110  RH  027%=      5-min Rain = 0
KCR1 112245Z 34023KT 07/M11 A3017 RMK A01 T00681110  RH  027%=      5-min Rain = 0
KCR1 112246Z 34024KT 07/M11 A3017 RMK A01 T00681110  RH  027%=      5-min Rain = 0
KCR1 112247Z 34024KT 07/M11 A3017 RMK A01 T00671111  RH  027%=      5-min Rain = 0
KCR1 112248Z 34019KT 07/M11 A3017 RMK A01 T00671110  RH  027%=      5-min Rain = 0
KCR1 112249Z 34020G26KT 07/M11 A3017 RMK A01 T00671110  RH  027%=      5-min Rain = 0
KCR1 112250Z 35017G22KT 07/M11 A3017 RMK A01 T00671109  RH  027%=      5-min Rain = 0
KCR1 112251Z 35015KT 07/M11 A3017 RMK A01 T00671109  RH  027%=      5-min Rain = 0
KCR1 112252Z 34016KT 07/M11 A3017 RMK A01 T00681109  RH  027%=      5-min Rain = 0
KCR1 112253Z 34015KT 07/M11 A3017 RMK A01 T00681109  RH  027%=      5-min Rain = 0
KCR1 112254Z 34016KT 07/M11 A3017 RMK A01 T00681109  RH  027%=      5-min Rain = 0
KCR1 112255Z 34019KT 07/M11 A3017 RMK A01 T00681109  RH  027%=      5-min Rain = 0
KCR1 112256Z 34018G24KT 07/M11 A3017 RMK A01 T00681109  RH  027%=      5-min Rain = 0
KCR1 112257Z 34021KT 07/M11 A3017 RMK A01 T00681109  RH  027%=      5-min Rain = 0
KCR1 112258Z 34021KT 07/M11 A3017 RMK A01 T00671110  RH  027%=      5-min Rain = 0
KCR1 112259Z 34023KT 07/M11 A3017 RMK A01 T00671110  RH  027%=      5-min Rain = 0
KCR1 112300Z 34022KT 07/M11 A3017 RMK A01 T00661110  RH  027%=      5-min Rain = 0
KCR1 112301Z 35018KT 07/M11 A3017 RMK A01 T00661110  RH  027%=      5-min Rain = 0
KCR1 112302Z 35021KT 07/M11 A3017 RMK A01 T00661110  RH  027%=      5-min Rain = 0
KCR1 112303Z 35022KT 07/M11 A3017 RMK A01 T00661110  RH  027%=      5-min Rain = 0
KCR1 112304Z 34022KT 07/M11 A3017 RMK A01 T00661109  RH  027%=      5-min Rain = 0
KCR1 112305Z 34018KT 07/M11 A3017 RMK A01 T00661109  RH  027%=      5-min Rain = 0
KCR1 112306Z 34019KT 07/M11 A3017 RMK A01 T00661109  RH  027%=      5-min Rain = 0
KCR1 112307Z 34017KT 07/M11 A3017 RMK A01 T00661109  RH  028%=      5-min Rain = 0
KCR1 112308Z 34020KT 07/M11 A3017 RMK A01 T00661108  RH  028%=      5-min Rain = 0
KCR1 112309Z 33020G25KT 07/M11 A3018 RMK A01 T00651108  RH  028%=      5-min Rain = 0
KCR1 112310Z 34017KT 07/M11 A3018 RMK A01 T00651108  RH  028%=      5-min Rain = 0
KCR1 112311Z 34017G22KT 07/M11 A3018 RMK A01 T00651108  RH  028%=      5-min Rain = 0
KCR1 112312Z 34017G22KT 07/M11 A3018 RMK A01 T00651107  RH  028%=      5-min Rain = 0
KCR1 112313Z 34017KT 06/M11 A3018 RMK A01 T00641107  RH  028%=      5-min Rain = 0
KCR1 112314Z 34014KT 06/M11 A3018 RMK A01 T00641107  RH  028%=      5-min Rain = 0
KCR1 112315Z 34017KT 06/M11 A3018 RMK A01 T00641107  RH  028%=      5-min Rain = 0
KCR1 112316Z 34019KT 06/M11 A3018 RMK A01 T00641106  RH  028%=      5-min Rain = 0
KCR1 112317Z 35014KT 06/M11 A3018 RMK A01 T00631107  RH  028%=      5-min Rain = 0
KCR1 112318Z 34020KT 06/M11 A3018 RMK A01 T00631107  RH  028%=      5-min Rain = 0
KCR1 112319Z 34020KT 06/M11 A3018 RMK A01 T00631107  RH  028%=      5-min Rain = 0
KCR1 112320Z 34018KT 06/M11 A3018 RMK A01 T00621108  RH  029%=      5-min Rain = 0
KCR1 112321Z 34016KT 06/M11 A3018 RMK A01 T00621108  RH  029%=      5-min Rain = 0
KCR1 112322Z 35017KT 06/M11 A3018 RMK A01 T00611107  RH  029%=      5-min Rain = 0
KCR1 112323Z 34017G24KT 06/M11 A3018 RMK A01 T00611107  RH  029%=      5-min Rain = 0
KCR1 112324Z 35025KT 06/M11 A3018 RMK A01 T00601108  RH  029%=      5-min Rain = 0
KCR1 112325Z 35024KT 06/M11 A3018 RMK A01 T00601108  RH  029%=      5-min Rain = 0
KCR1 112326Z 35023KT 06/M11 A3018 RMK A01 T00601108  RH  029%=      5-min Rain = 0
KCR1 112327Z 34021G27KT 06/M11 A3018 RMK A01 T00601107  RH  029%=      5-min Rain = 0
KCR1 112328Z 34019KT 06/M11 A3018 RMK A01 T00601107  RH  029%=      5-min Rain = 0
KCR1 112329Z 35019G24KT 06/M11 A3018 RMK A01 T00591107  RH  029%=      5-min Rain = 0
KCR1 112330Z 34021KT 06/M11 A3018 RMK A01 T00591107  RH  029%=      5-min Rain = 0
KCR1 112331Z 34021KT 06/M11 A3018 RMK A01 T00581107  RH  029%=      5-min Rain = 0
KCR1 112332Z 34019KT 06/M11 A3019 RMK A01 T00581107  RH  029%=      5-min Rain = 0
KCR1 112333Z 34019KT 06/M11 A3019 RMK A01 T00581107  RH  029%=      5-min Rain = 0
KCR1 112334Z 34019KT 06/M11 A3019 RMK A01 T00571107  RH  030%=      5-min Rain = 0
KCR1 112335Z 34024KT 06/M11 A3019 RMK A01 T00571107  RH  030%=      5-min Rain = 0
KCR1 112336Z 34025KT 06/M11 A3019 RMK A01 T00561107  RH  030%=      5-min Rain = 0
KCR1 112337Z 35024KT 06/M11 A3019 RMK A01 T00571107  RH  030%=      5-min Rain = 0
KCR1 112338Z 34021KT 06/M11 A3019 RMK A01 T00561107  RH  030%=      5-min Rain = 0
KCR1 112339Z 35019KT 06/M11 A3019 RMK A01 T00561107  RH  030%=      5-min Rain = 0
KCR1 112340Z 34018KT 06/M11 A3019 RMK A01 T00551107  RH  030%=      5-min Rain = 0
KCR1 112341Z 35021KT 05/M11 A3019 RMK A01 T00541107  RH  030%=      5-min Rain = 0
KCR1 112342Z 34020G25KT 05/M11 A3019 RMK A01 T00541106  RH  030%=      5-min Rain = 0
KCR1 112343Z 34018KT 05/M11 A302 RMK A01 T00541106  RH  030%=      5-min Rain = 0
KCR1 112344Z 34019G24KT 05/M11 A302 RMK A01 T00541106  RH  031%=      5-min Rain = 0
KCR1 112345Z 34015KT 05/M11 A302 RMK A01 T00531106  RH  031%=      5-min Rain = 0
KCR1 112346Z 34017KT 05/M11 A302 RMK A01 T00531105  RH  031%=      5-min Rain = 0
KCR1 112347Z 33015KT 05/M11 A302 RMK A01 T00521105  RH  031%=      5-min Rain = 0
KCR1 112348Z 34017KT 05/M10 A302 RMK A01 T00521104  RH  031%=      5-min Rain = 0
KCR1 112349Z 33019KT 05/M10 A302 RMK A01 T00511104  RH  032%=      5-min Rain = 0
KCR1 112350Z 34017KT 05/M10 A302 RMK A01 T00511103  RH  032%=      5-min Rain = 0
KCR1 112351Z 34020G25KT 05/M10 A302 RMK A01 T00511103  RH  032%=      5-min Rain = 0
KCR1 112352Z 34020KT 05/M10 A302 RMK A01 T00501103  RH  032%=      5-min Rain = 0
KCR1 112353Z 34018G23KT 05/M10 A302 RMK A01 T00511102  RH  032%=      5-min Rain = 0
KCR1 112354Z 34013KT 05/M10 A3021 RMK A01 T00501103  RH  032%=      5-min Rain = 0
KCR1 112355Z 34017KT 05/M10 A3021 RMK A01 T00481104  RH  032%=      5-min Rain = 0
KCR1 112356Z 35020KT 05/M10 A302 RMK A01 T00481103  RH  032%=      5-min Rain = 0
KCR1 112357Z 33017KT 05/M10 A3021 RMK A01 T00481104  RH  032%=      5-min Rain = 0
KCR1 112358Z 34018G23KT 05/M10 A3021 RMK A01 T00481104  RH  032%=      5-min Rain = 0
KCR1 112359Z 34017KT 05/M10 A3021 RMK A01 T00481104  RH  032%=      5-min Rain = 0
KCR1 120000Z 34019KT 05/M10 A3021 RMK A01 T00471104  RH  033%=      5-min Rain = 0
KCR1 120001Z 34019KT 05/M10 A3021 RMK A01 T00471104  RH  033%=      5-min Rain = 0
KCR1 120002Z 33017G22KT 05/M10 A3021 RMK A01 T00461104  RH  033%=      5-min Rain = 0
KCR1 120003Z 33019KT 05/M10 A3021 RMK A01 T00461104  RH  033%=      5-min Rain = 0
KCR1 120004Z 33018KT 05/M10 A3021 RMK A01 T00461103  RH  033%=      5-min Rain = 0
KCR1 120005Z 33018G24KT 05/M10 A3021 RMK A01 T00461104  RH  033%=      5-min Rain = 0
KCR1 120006Z 33019KT 05/M10 A3021 RMK A01 T00461104  RH  033%=      5-min Rain = 0
KCR1 120007Z 34022G27KT 05/M11 A3021 RMK A01 T00451105  RH  033%=      5-min Rain = 0
KCR1 120008Z 34019KT 05/M11 A3021 RMK A01 T00451105  RH  033%=      5-min Rain = 0
KCR1 120009Z 34019KT 05/M11 A3021 RMK A01 T00451105  RH  033%=      5-min Rain = 0
KCR1 120010Z 34018KT 04/M11 A3021 RMK A01 T00441106  RH  033%=      5-min Rain = 0
KCR1 120011Z 34016KT 04/M11 A3021 RMK A01 T00431105  RH  033%=      5-min Rain = 0
KCR1 120012Z 34017KT 04/M11 A3021 RMK A01 T00421106  RH  033%=      5-min Rain = 0
KCR1 120013Z 34018KT 04/M11 A3022 RMK A01 T00421105  RH  033%=      5-min Rain = 0
KCR1 120014Z 34017KT 04/M11 A3022 RMK A01 T00421105  RH  033%=      5-min Rain = 0
KCR1 120015Z 33015KT 04/M11 A3022 RMK A01 T00421105  RH  033%=      5-min Rain = 0
KCR1 120016Z 34017KT 04/M11 A3022 RMK A01 T00421105  RH  033%=      5-min Rain = 0
KCR1 120017Z 34020KT 04/M11 A3022 RMK A01 T00421105  RH  033%=      5-min Rain = 0
KCR1 120018Z 34015KT 04/M11 A3022 RMK A01 T00421105  RH  033%=      5-min Rain = 0
KCR1 120019Z 34016KT 04/M11 A3022 RMK A01 T00411105  RH  034%=      5-min Rain = 0
KCR1 120020Z 34014KT 04/M11 A3022 RMK A01 T00411105  RH  034%=      5-min Rain = 0
KCR1 120021Z 33017KT 04/M11 A3022 RMK A01 T00401105  RH  034%=      5-min Rain = 0
KCR1 120022Z 34015KT 04/M10 A3022 RMK A01 T00401104  RH  034%=      5-min Rain = 0
KCR1 120023Z 34015KT 04/M10 A3022 RMK A01 T00401104  RH  034%=      5-min Rain = 0
KCR1 120024Z 34016KT 04/M10 A3022 RMK A01 T00401104  RH  034%=      5-min Rain = 0
KCR1 120025Z 34013KT 04/M10 A3022 RMK A01 T00401104  RH  034%=      5-min Rain = 0
KCR1 120026Z 34013KT 04/M10 A3022 RMK A01 T00391104  RH  034%=      5-min Rain = 0
KCR1 120027Z 34017KT 04/M10 A3022 RMK A01 T00381104  RH  035%=      5-min Rain = 0
KCR1 120028Z 34016KT 04/M10 A3022 RMK A01 T00391103  RH  035%=      5-min Rain = 0
KCR1 120029Z 34015KT 04/M10 A3022 RMK A01 T00391103  RH  035%=      5-min Rain = 0
KCR1 120030Z 34014KT 04/M10 A3022 RMK A01 T00391103  RH  035%=      5-min Rain = 0
KCR1 120031Z 34015KT 04/M10 A3022 RMK A01 T00381103  RH  035%=      5-min Rain = 0
KCR1 120032Z 34013KT 04/M10 A3023 RMK A01 T00381103  RH  035%=      5-min Rain = 0
KCR1 120033Z 34016KT 04/M10 A3023 RMK A01 T00371103  RH  035%=      5-min Rain = 0
KCR1 120034Z 34013KT 04/M10 A3023 RMK A01 T00371103  RH  035%=      5-min Rain = 0
KCR1 120035Z 34012KT 04/M10 A3023 RMK A01 T00371103  RH  035%=      5-min Rain = 0
KCR1 120036Z 34014KT 04/M10 A3023 RMK A01 T00371103  RH  035%=      5-min Rain = 0
KCR1 120037Z 34015KT 04/M10 A3023 RMK A01 T00361103  RH  035%=      5-min Rain = 0
KCR1 120038Z 33014KT 04/M10 A3023 RMK A01 T00361102  RH  036%=      5-min Rain = 0
KCR1 120039Z 34014KT 04/M10 A3023 RMK A01 T00361102  RH  036%=      5-min Rain = 0
KCR1 120040Z 33013KT 04/M10 A3023 RMK A01 T00361102  RH  036%=      5-min Rain = 0
KCR1 120041Z 34013KT 04/M10 A3023 RMK A01 T00361102  RH  036%=      5-min Rain = 0
KCR1 120042Z 34014G19KT 04/M10 A3023 RMK A01 T00351102  RH  036%=      5-min Rain = 0
KCR1 120043Z 33015KT 04/M10 A3023 RMK A01 T00351102  RH  036%=      5-min Rain = 0
KCR1 120044Z 34015KT 04/M10 A3023 RMK A01 T00361101  RH  036%=      5-min Rain = 0
KCR1 120045Z 34015KT 04/M10 A3023 RMK A01 T00361101  RH  036%=      5-min Rain = 0
KCR1 120046Z 34016KT 04/M10 A3023 RMK A01 T00361101  RH  036%=      5-min Rain = 0
KCR1 120047Z 33014KT 04/M10 A3023 RMK A01 T00361101  RH  036%=      5-min Rain = 0
KCR1 120048Z 33015KT 04/M10 A3023 RMK A01 T00361101  RH  036%=      5-min Rain = 0
KCR1 120049Z 34017KT 04/M10 A3023 RMK A01 T00361100  RH  036%=      5-min Rain = 0
KCR1 120050Z 34016KT 04/M10 A3023 RMK A01 T00361100  RH  036%=      5-min Rain = 0
KCR1 120051Z 34016KT 04/M10 A3024 RMK A01 T00361099  RH  036%=      5-min Rain = 0
KCR1 120052Z 33015KT 04/M10 A3024 RMK A01 T00361099  RH  036%=      5-min Rain = 0
KCR1 120053Z 34014KT 04/M10 A3024 RMK A01 T00361099  RH  037%=      5-min Rain = 0
KCR1 120054Z 34014KT 04/M10 A3024 RMK A01 T00351099  RH  037%=      5-min Rain = 0
KCR1 120055Z 34016KT 04/M10 A3024 RMK A01 T00351099  RH  037%=      5-min Rain = 0
KCR1 120056Z 34015KT 04/M10 A3024 RMK A01 T00351098  RH  037%=      5-min Rain = 0
KCR1 120057Z 34015G20KT 04/M10 A3024 RMK A01 T00351098  RH  037%=      5-min Rain = 0
KCR1 120058Z 34017KT 04/M10 A3024 RMK A01 T00351098  RH  037%=      5-min Rain = 0
KCR1 120059Z 34014KT 04/M10 A3024 RMK A01 T00351098  RH  037%=      5-min Rain = 0
KCR1 120100Z 33015KT 04/M10 A3024 RMK A01 T00351098  RH  037%=      5-min Rain = 0
KCR1 120101Z 34015KT 04/M10 A3024 RMK A01 T00351097  RH  037%=      5-min Rain = 0
KCR1 120102Z 33015KT 04/M10 A3024 RMK A01 T00351097  RH  037%=      5-min Rain = 0
KCR1 120103Z 33017KT 04/M10 A3024 RMK A01 T00351097  RH  037%=      5-min Rain = 0
KCR1 120104Z 33016KT 04/M10 A3024 RMK A01 T00351097  RH  037%=      5-min Rain = 0
KCR1 120105Z 34016G21KT 04/M10 A3024 RMK A01 T00351097  RH  038%=      5-min Rain = 0
KCR1 120106Z 33017G22KT 04/M10 A3024 RMK A01 T00351096  RH  038%=      5-min Rain = 0
KCR1 120107Z 33017KT 04/M10 A3024 RMK A01 T00351096  RH  038%=      5-min Rain = 0
KCR1 120108Z 33017G22KT 04/M10 A3024 RMK A01 T00351096  RH  038%=      5-min Rain = 0
KCR1 120109Z 34017G22KT 04/M10 A3024 RMK A01 T00351096  RH  038%=      5-min Rain = 0
KCR1 120110Z 33016KT 04/M10 A3024 RMK A01 T00351095  RH  038%=      5-min Rain = 0
KCR1 120111Z 33016KT 04/M10 A3024 RMK A01 T00351095  RH  038%=      5-min Rain = 0
KCR1 120112Z 34015KT 04/M10 A3024 RMK A01 T00351095  RH  038%=      5-min Rain = 0
KCR1 120113Z 34019KT 04/M10 A3024 RMK A01 T00351095  RH  038%=      5-min Rain = 0
KCR1 120114Z 33017KT 04/M10 A3025 RMK A01 T00351095  RH  038%=      5-min Rain = 0
KCR1 120115Z 33016KT 04/M10 A3025 RMK A01 T00351095  RH  038%=      5-min Rain = 0
KCR1 120116Z 33018KT 04/M10 A3025 RMK A01 T00351095  RH  038%=      5-min Rain = 0
KCR1 120117Z 33018KT 03/M10 A3025 RMK A01 T00341095  RH  038%=      5-min Rain = 0
KCR1 120118Z 33017KT 03/M10 A3025 RMK A01 T00341095  RH  038%=      5-min Rain = 0
KCR1 120119Z 33014KT 03/M09 A3025 RMK A01 T00341094  RH  038%=      5-min Rain = 0
KCR1 120120Z 33016KT 03/M09 A3025 RMK A01 T00341094  RH  038%=      5-min Rain = 0
KCR1 120121Z 33019KT 03/M09 A3025 RMK A01 T00331094  RH  039%=      5-min Rain = 0
KCR1 120122Z 33014G19KT 03/M09 A3025 RMK A01 T00331094  RH  039%=      5-min Rain = 0
KCR1 120123Z 33017KT 03/M09 A3025 RMK A01 T00331094  RH  039%=      5-min Rain = 0
KCR1 120124Z 33016KT 03/M09 A3025 RMK A01 T00331094  RH  039%=      5-min Rain = 0
KCR1 120125Z 33015KT 03/M09 A3025 RMK A01 T00331094  RH  039%=      5-min Rain = 0
KCR1 120126Z 33015KT 03/M09 A3025 RMK A01 T00321094  RH  039%=      5-min Rain = 0
KCR1 120127Z 33014KT 03/M09 A3025 RMK A01 T00321094  RH  039%=      5-min Rain = 0
KCR1 120128Z 33015KT 03/M09 A3025 RMK A01 T00321094  RH  039%=      5-min Rain = 0
KCR1 120129Z 33014KT 03/M09 A3026 RMK A01 T00321093  RH  039%=      5-min Rain = 0
KCR1 120130Z 33015KT 03/M09 A3025 RMK A01 T00321094  RH  039%=      5-min Rain = 0
KCR1 120131Z 34016KT 03/M09 A3026 RMK A01 T00311094  RH  039%=      5-min Rain = 0
KCR1 120132Z 34015KT 03/M09 A3026 RMK A01 T00311094  RH  039%=      5-min Rain = 0
KCR1 120133Z 33015KT 03/M09 A3026 RMK A01 T00311093  RH  040%=      5-min Rain = 0
KCR1 120134Z 34015KT 03/M09 A3026 RMK A01 T00311093  RH  040%=      5-min Rain = 0
KCR1 120135Z 33013KT 03/M09 A3026 RMK A01 T00311093  RH  040%=      5-min Rain = 0
KCR1 120136Z 34015KT 03/M09 A3026 RMK A01 T00301094  RH  040%=      5-min Rain = 0
KCR1 120137Z 34016KT 03/M09 A3026 RMK A01 T00301094  RH  040%=      5-min Rain = 0
KCR1 120138Z 34015KT 03/M09 A3026 RMK A01 T00301094  RH  040%=      5-min Rain = 0
KCR1 120139Z 34018KT 03/M09 A3026 RMK A01 T00301093  RH  040%=      5-min Rain = 0
KCR1 120140Z 34015KT 03/M09 A3026 RMK A01 T00311093  RH  040%=      5-min Rain = 0
KCR1 120141Z 34017KT 03/M09 A3026 RMK A01 T00311093  RH  040%=      5-min Rain = 0
KCR1 120142Z 34015KT 03/M09 A3026 RMK A01 T00311093  RH  040%=      5-min Rain = 0
KCR1 120143Z 34016KT 03/M09 A3026 RMK A01 T00311093  RH  040%=      5-min Rain = 0
KCR1 120144Z 34016KT 03/M09 A3026 RMK A01 T00311093  RH  040%=      5-min Rain = 0
KCR1 120145Z 34017G22KT 03/M09 A3026 RMK A01 T00311093  RH  040%=      5-min Rain = 0
KCR1 120146Z 34016G21KT 03/M09 A3027 RMK A01 T00311093  RH  040%=      5-min Rain = 0
KCR1 120147Z 34016KT 03/M09 A3027 RMK A01 T00311092  RH  040%=      5-min Rain = 0
KCR1 120148Z 34018KT 03/M09 A3027 RMK A01 T00311092  RH  040%=      5-min Rain = 0
KCR1 120149Z 34017G22KT 03/M09 A3026 RMK A01 T00311092  RH  040%=      5-min Rain = 0
KCR1 120150Z 34018KT 03/M09 A3026 RMK A01 T00311092  RH  040%=      5-min Rain = 0
KCR1 120151Z 34016KT 03/M09 A3026 RMK A01 T00311092  RH  040%=      5-min Rain = 0
KCR1 120152Z 34017G22KT 03/M09 A3026 RMK A01 T00311092  RH  040%=      5-min Rain = 0
KCR1 120153Z 34018KT 03/M09 A3026 RMK A01 T00311092  RH  040%=      5-min Rain = 0
KCR1 120154Z 34015KT 03/M09 A3026 RMK A01 T00311092  RH  040%=      5-min Rain = 0
KCR1 120155Z 34017KT 03/M09 A3026 RMK A01 T00301092  RH  040%=      5-min Rain = 0
KCR1 120156Z 34017KT 03/M09 A3026 RMK A01 T00301092  RH  040%=      5-min Rain = 0
KCR1 120157Z 34016KT 03/M09 A3026 RMK A01 T00301092  RH  040%=      5-min Rain = 0
KCR1 120158Z 34017G25KT 03/M09 A3027 RMK A01 T00301092  RH  040%=      5-min Rain = 0
KCR1 120159Z 34020KT 03/M09 A3027 RMK A01 T00301092  RH  040%=      5-min Rain = 0
KCR1 120200Z 35016KT 03/M09 A3027 RMK A01 T00301091  RH  041%=      5-min Rain = 0
KCR1 120201Z 34016KT 03/M09 A3027 RMK A01 T00301092  RH  040%=      5-min Rain = 0
KCR1 120202Z 35018KT 03/M09 A3027 RMK A01 T00301092  RH  041%=      5-min Rain = 0
KCR1 120203Z 34015KT 03/M09 A3027 RMK A01 T00291092  RH  041%=      5-min Rain = 0
KCR1 120204Z 34015KT 03/M09 A3027 RMK A01 T00291092  RH  041%=      5-min Rain = 0
KCR1 120205Z 34017KT 03/M09 A3027 RMK A01 T00281092  RH  041%=      5-min Rain = 0
KCR1 120206Z 34016KT 03/M09 A3027 RMK A01 T00281092  RH  041%=      5-min Rain = 0
KCR1 120207Z 34017KT 03/M09 A3027 RMK A01 T00281092  RH  041%=      5-min Rain = 0
KCR1 120208Z 34016KT 03/M09 A3027 RMK A01 T00291091  RH  041%=      5-min Rain = 0
KCR1 120209Z 34018KT 03/M09 A3027 RMK A01 T00281091  RH  041%=      5-min Rain = 0
KCR1 120210Z 34018KT 03/M09 A3028 RMK A01 T00281091  RH  041%=      5-min Rain = 0
KCR1 120211Z 34016KT 03/M09 A3028 RMK A01 T00281091  RH  041%=      5-min Rain = 0
KCR1 120212Z 34016KT 03/M09 A3028 RMK A01 T00281091  RH  041%=      5-min Rain = 0
KCR1 120213Z 34015KT 03/M09 A3028 RMK A01 T00281091  RH  041%=      5-min Rain = 0
KCR1 120214Z 35018KT 03/M09 A3028 RMK A01 T00271092  RH  041%=      5-min Rain = 0
KCR1 120215Z 34015KT 03/M09 A3028 RMK A01 T00271091  RH  041%=      5-min Rain = 0
KCR1 120216Z 35014KT 03/M09 A3028 RMK A01 T00271092  RH  041%=      5-min Rain = 0
KCR1 120217Z 34016KT 03/M09 A3028 RMK A01 T00261092  RH  041%=      5-min Rain = 0
KCR1 120218Z 34016KT 03/M09 A3028 RMK A01 T00261092  RH  041%=      5-min Rain = 0
KCR1 120219Z 34014KT 03/M09 A3028 RMK A01 T00271092  RH  041%=      5-min Rain = 0
KCR1 120220Z 34015KT 03/M09 A3028 RMK A01 T00261092  RH  041%=      5-min Rain = 0
KCR1 120221Z 35014KT 03/M09 A3028 RMK A01 T00261092  RH  042%=      5-min Rain = 0
KCR1 120222Z 34012KT 03/M09 A3028 RMK A01 T00261092  RH  042%=      5-min Rain = 0
KCR1 120223Z 35015KT 03/M09 A3028 RMK A01 T00251092  RH  042%=      5-min Rain = 0
KCR1 120224Z 35016KT 03/M09 A3028 RMK A01 T00251092  RH  042%=      5-min Rain = 0
KCR1 120225Z 35015KT 03/M09 A3028 RMK A01 T00251092  RH  042%=      5-min Rain = 0
KCR1 120226Z 35015KT 03/M09 A3028 RMK A01 T00251092  RH  042%=      5-min Rain = 0
KCR1 120227Z 35016KT 03/M09 A3028 RMK A01 T00251092  RH  042%=      5-min Rain = 0
KCR1 120228Z 35016G21KT 03/M09 A3028 RMK A01 T00251092  RH  042%=      5-min Rain = 0
KCR1 120229Z 35016KT 03/M09 A3028 RMK A01 T00261091  RH  042%=      5-min Rain = 0
KCR1 120230Z 36020KT 03/M09 A3028 RMK A01 T00261091  RH  042%=      5-min Rain = 0
KCR1 120231Z 35018KT 03/M09 A3029 RMK A01 T00261091  RH  042%=      5-min Rain = 0
KCR1 120232Z 35016KT 03/M09 A3029 RMK A01 T00261091  RH  042%=      5-min Rain = 0
KCR1 120233Z 35016KT 03/M09 A3029 RMK A01 T00261091  RH  042%=      5-min Rain = 0
KCR1 120234Z 35014KT 03/M09 A3029 RMK A01 T00261092  RH  042%=      5-min Rain = 0
KCR1 120235Z 35017KT 03/M09 A3029 RMK A01 T00251091  RH  042%=      5-min Rain = 0
KCR1 120236Z 35016G21KT 03/M09 A3029 RMK A01 T00251091  RH  042%=      5-min Rain = 0
KCR1 120237Z 36015KT 03/M09 A3029 RMK A01 T00251091  RH  042%=      5-min Rain = 0
KCR1 120238Z 35015KT 03/M09 A3029 RMK A01 T00251091  RH  042%=      5-min Rain = 0
KCR1 120239Z 36016KT 02/M09 A3029 RMK A01 T00241092  RH  042%=      5-min Rain = 0
KCR1 120240Z 35015KT 03/M09 A3029 RMK A01 T00251091  RH  042%=      5-min Rain = 0
KCR1 120241Z 35016KT 03/M09 A3029 RMK A01 T00251091  RH  042%=      5-min Rain = 0
KCR1 120242Z 35014KT 02/M09 A3029 RMK A01 T00241092  RH  042%=      5-min Rain = 0
KCR1 120243Z 35014KT 02/M09 A3029 RMK A01 T00241092  RH  042%=      5-min Rain = 0
KCR1 120244Z 35014KT 02/M09 A3029 RMK A01 T00231092  RH  042%=      5-min Rain = 0
KCR1 120245Z 36013KT 02/M09 A3029 RMK A01 T00231092  RH  042%=      5-min Rain = 0
KCR1 120246Z 35014KT 02/M09 A3029 RMK A01 T00221092  RH  042%=      5-min Rain = 0
KCR1 120247Z 35015KT 02/M09 A3029 RMK A01 T00221092  RH  043%=      5-min Rain = 0
KCR1 120248Z 35016KT 02/M09 A3029 RMK A01 T00231092  RH  043%=      5-min Rain = 0
KCR1 120249Z 34017KT 02/M09 A3029 RMK A01 T00231092  RH  042%=      5-min Rain = 0
KCR1 120250Z 34015KT 02/M09 A3029 RMK A01 T00231092  RH  042%=      5-min Rain = 0
KCR1 120251Z 35016KT 02/M09 A3029 RMK A01 T00231092  RH  042%=      5-min Rain = 0
KCR1 120252Z 35017KT 02/M09 A3029 RMK A01 T00241092  RH  042%=      5-min Rain = 0
KCR1 120253Z 35015KT 02/M09 A3029 RMK A01 T00241092  RH  042%=      5-min Rain = 0
KCR1 120254Z 35014KT 02/M09 A3029 RMK A01 T00231092  RH  042%=      5-min Rain = 0
KCR1 120255Z 35014KT 02/M09 A3029 RMK A01 T00231092  RH  042%=      5-min Rain = 0
KCR1 120256Z 35014KT 02/M09 A3029 RMK A01 T00221092  RH  043%=      5-min Rain = 0
KCR1 120257Z 34014KT 02/M09 A3029 RMK A01 T00221092  RH  043%=      5-min Rain = 0
KCR1 120258Z 35014KT 02/M09 A3029 RMK A01 T00211092  RH  043%=      5-min Rain = 0
KCR1 120259Z 34013KT 02/M09 A3029 RMK A01 T00211092  RH  043%=      5-min Rain = 0
KCR1 120300Z 35012KT 02/M09 A3029 RMK A01 T00201092  RH  043%=      5-min Rain = 0
KCR1 120301Z 35013KT 02/M09 A3029 RMK A01 T00201093  RH  043%=      5-min Rain = 0
KCR1 120302Z 35014KT 02/M09 A3029 RMK A01 T00191093  RH  043%=      5-min Rain = 0
KCR1 120303Z 35013KT 02/M09 A3029 RMK A01 T00191092  RH  043%=      5-min Rain = 0
KCR1 120304Z 35012KT 02/M09 A3029 RMK A01 T00191093  RH  043%=      5-min Rain = 0
KCR1 120305Z 35013KT 02/M09 A3029 RMK A01 T00191093  RH  043%=      5-min Rain = 0
KCR1 120306Z 34013KT 02/M09 A3029 RMK A01 T00191092  RH  043%=      5-min Rain = 0
KCR1 120307Z 34012KT 02/M09 A3029 RMK A01 T00191093  RH  043%=      5-min Rain = 0
KCR1 120308Z 34012KT 02/M09 A3029 RMK A01 T00191093  RH  043%=      5-min Rain = 0
KCR1 120309Z 34012KT 02/M09 A303 RMK A01 T00181093  RH  043%=      5-min Rain = 0
KCR1 120310Z 34011KT 02/M09 A303 RMK A01 T00181093  RH  044%=      5-min Rain = 0
KCR1 120311Z 34010KT 02/M09 A303 RMK A01 T00171093  RH  044%=      5-min Rain = 0
KCR1 120312Z 34010KT 02/M09 A303 RMK A01 T00161094  RH  044%=      5-min Rain = 0
KCR1 120313Z 33011KT 02/M09 A303 RMK A01 T00161093  RH  044%=      5-min Rain = 0
KCR1 120314Z 33010KT 02/M09 A303 RMK A01 T00161093  RH  044%=      5-min Rain = 0
KCR1 120315Z 34010KT 02/M09 A303 RMK A01 T00151094  RH  044%=      5-min Rain = 0
KCR1 120316Z 34010KT 02/M09 A303 RMK A01 T00161093  RH  044%=      5-min Rain = 0
KCR1 120317Z 34011KT 02/M09 A3031 RMK A01 T00151093  RH  044%=      5-min Rain = 0
KCR1 120318Z 34012KT 02/M09 A3031 RMK A01 T00151093  RH  044%=      5-min Rain = 0
KCR1 120319Z 34011KT 02/M09 A3031 RMK A01 T00161093  RH  044%=      5-min Rain = 0
KCR1 120320Z 34010KT 02/M09 A3031 RMK A01 T00161093  RH  044%=      5-min Rain = 0
KCR1 120321Z 34011KT 02/M09 A3031 RMK A01 T00161093  RH  044%=      5-min Rain = 0
KCR1 120322Z 34013KT 02/M09 A3031 RMK A01 T00151093  RH  044%=      5-min Rain = 0
KCR1 120323Z 34012KT 02/M09 A3031 RMK A01 T00151093  RH  044%=      5-min Rain = 0
KCR1 120324Z 35012KT 02/M09 A3031 RMK A01 T00161093  RH  044%=      5-min Rain = 0
KCR1 120325Z 34012KT 02/M09 A3031 RMK A01 T00161093  RH  044%=      5-min Rain = 0
KCR1 120326Z 35012KT 02/M09 A3031 RMK A01 T00161093  RH  044%=      5-min Rain = 0
KCR1 120327Z 35014KT 02/M09 A3031 RMK A01 T00161093  RH  044%=      5-min Rain = 0
KCR1 120328Z 35015KT 02/M09 A3031 RMK A01 T00161093  RH  044%=      5-min Rain = 0
KCR1 120329Z 35014KT 02/M09 A3031 RMK A01 T00161093  RH  044%=      5-min Rain = 0
KCR1 120330Z 34014KT 02/M09 A3031 RMK A01 T00171093  RH  044%=      5-min Rain = 0
KCR1 120331Z 35013KT 02/M09 A3031 RMK A01 T00171094  RH  044%=      5-min Rain = 0
KCR1 120332Z 35013KT 02/M09 A3031 RMK A01 T00171093  RH  044%=      5-min Rain = 0
KCR1 120333Z 35013KT 02/M09 A3031 RMK A01 T00161094  RH  044%=      5-min Rain = 0
KCR1 120334Z 35013KT 02/M09 A3031 RMK A01 T00171094  RH  044%=      5-min Rain = 0
KCR1 120335Z 35014KT 02/M09 A3031 RMK A01 T00161094  RH  044%=      5-min Rain = 0
KCR1 120336Z 36015KT 02/M09 A3031 RMK A01 T00171093  RH  044%=      5-min Rain = 0
KCR1 120337Z 36014KT 02/M09 A3031 RMK A01 T00171093  RH  044%=      5-min Rain = 0
KCR1 120338Z 35014KT 02/M09 A3031 RMK A01 T00171094  RH  044%=      5-min Rain = 0
KCR1 120339Z 36015KT 02/M09 A3031 RMK A01 T00171094  RH  044%=      5-min Rain = 0
KCR1 120340Z 36016KT 02/M09 A3031 RMK A01 T00171094  RH  044%=      5-min Rain = 0
KCR1 120341Z 36014KT 02/M09 A3031 RMK A01 T00181094  RH  043%=      5-min Rain = 0
KCR1 120342Z 35016KT 02/M09 A3031 RMK A01 T00181094  RH  043%=      5-min Rain = 0
KCR1 120343Z 36016KT 02/M10 A3031 RMK A01 T00181095  RH  043%=      5-min Rain = 0
KCR1 120344Z 36016KT 02/M09 A3031 RMK A01 T00171094  RH  043%=      5-min Rain = 0
KCR1 120345Z 35016KT 02/M10 A3031 RMK A01 T00181095  RH  043%=      5-min Rain = 0
KCR1 120346Z 35013KT 02/M10 A3032 RMK A01 T00171095  RH  043%=      5-min Rain = 0
KCR1 120347Z 35015KT 02/M10 A3032 RMK A01 T00171095  RH  043%=      5-min Rain = 0
KCR1 120348Z 36014KT 02/M10 A3032 RMK A01 T00171095  RH  043%=      5-min Rain = 0
KCR1 120349Z 36015KT 02/M10 A3031 RMK A01 T00171095  RH  043%=      5-min Rain = 0
KCR1 120350Z 36014KT 02/M10 A3031 RMK A01 T00171095  RH  043%=      5-min Rain = 0
KCR1 120351Z 00015KT 02/M10 A3031 RMK A01 T00171095  RH  043%=      5-min Rain = 0
KCR1 120352Z 00014KT 02/M10 A3031 RMK A01 T00171095  RH  043%=      5-min Rain = 0
KCR1 120353Z 36013KT 02/M10 A3031 RMK A01 T00161095  RH  043%=      5-min Rain = 0
KCR1 120354Z 00015KT 02/M10 A3031 RMK A01 T00161095  RH  044%=      5-min Rain = 0
KCR1 120355Z 00013KT 02/M10 A3031 RMK A01 T00161095  RH  044%=      5-min Rain = 0
KCR1 120356Z 36013KT 02/M10 A3031 RMK A01 T00151095  RH  044%=      5-min Rain = 0
KCR1 120357Z 00013KT 01/M10 A3031 RMK A01 T00141096  RH  044%=      5-min Rain = 0
KCR1 120358Z 36013KT 01/M10 A3031 RMK A01 T00141095  RH  044%=      5-min Rain = 0
KCR1 120359Z 36013KT 01/M10 A3031 RMK A01 T00141095  RH  044%=      5-min Rain = 0
KCR1 120400Z 36014KT 01/M10 A3031 RMK A01 T00131095  RH  044%=      5-min Rain = 0
KCR1 120401Z 36015KT 01/M10 A3031 RMK A01 T00131095  RH  044%=      5-min Rain = 0
KCR1 120402Z 00014KT 01/M10 A3031 RMK A01 T00131095  RH  044%=      5-min Rain = 0
KCR1 120403Z 36013KT 01/M10 A3031 RMK A01 T00131095  RH  044%=      5-min Rain = 0
KCR1 120404Z 00013KT 01/M10 A3031 RMK A01 T00131095  RH  044%=      5-min Rain = 0
KCR1 120405Z 36012KT 01/M10 A3032 RMK A01 T00121095  RH  045%=      5-min Rain = 0
KCR1 120406Z 00012KT 01/M10 A3032 RMK A01 T00121095  RH  045%=      5-min Rain = 0
KCR1 120407Z 00013KT 01/M10 A3032 RMK A01 T00121095  RH  045%=      5-min Rain = 0
KCR1 120408Z 00011KT 01/M10 A3032 RMK A01 T00111095  RH  045%=      5-min Rain = 0
KCR1 120409Z 00012KT 01/M10 A3032 RMK A01 T00111095  RH  045%=      5-min Rain = 0
KCR1 120410Z 36010KT 01/M10 A3032 RMK A01 T00111095  RH  045%=      5-min Rain = 0
KCR1 120411Z 00012KT 01/M10 A3032 RMK A01 T00101095  RH  045%=      5-min Rain = 0
KCR1 120412Z 00011KT 01/M10 A3032 RMK A01 T00101095  RH  046%=      5-min Rain = 0
KCR1 120413Z 00011KT 01/M10 A3033 RMK A01 T00101095  RH  046%=      5-min Rain = 0
KCR1 120414Z 00011KT 01/M09 A3033 RMK A01 T00101094  RH  046%=      5-min Rain = 0
KCR1 120415Z 36011KT 01/M10 A3033 RMK A01 T00091095  RH  046%=      5-min Rain = 0
KCR1 120416Z 00010KT 01/M10 A3033 RMK A01 T00091095  RH  046%=      5-min Rain = 0
KCR1 120417Z 00009KT 01/M10 A3033 RMK A01 T00081095  RH  046%=      5-min Rain = 0
KCR1 120418Z 01011KT 01/M10 A3033 RMK A01 T00071095  RH  046%=      5-min Rain = 0
KCR1 120419Z 00010KT 01/M10 A3033 RMK A01 T00071095  RH  046%=      5-min Rain = 0
KCR1 120420Z 00010KT 01/M10 A3033 RMK A01 T00071095  RH  046%=      5-min Rain = 0
KCR1 120421Z 00009KT 01/M09 A3033 RMK A01 T00071094  RH  046%=      5-min Rain = 0
KCR1 120422Z 01009KT 01/M10 A3033 RMK A01 T00061095  RH  047%=      5-min Rain = 0
KCR1 120423Z 01008KT 01/M10 A3033 RMK A01 T00061095  RH  047%=      5-min Rain = 0
KCR1 120424Z 01008KT 01/M10 A3033 RMK A01 T00061095  RH  047%=      5-min Rain = 0
KCR1 120425Z 01008KT 01/M10 A3033 RMK A01 T00051095  RH  047%=      5-min Rain = 0
KCR1 120426Z 01008KT 00/M10 A3033 RMK A01 T00041095  RH  047%=      5-min Rain = 0
KCR1 120427Z 01008KT 00/M10 A3033 RMK A01 T00041095  RH  047%=      5-min Rain = 0
KCR1 120428Z 01008KT 00/M10 A3033 RMK A01 T00041095  RH  047%=      5-min Rain = 0
KCR1 120429Z 01008KT 00/M10 A3033 RMK A01 T00031096  RH  048%=      5-min Rain = 0
KCR1 120430Z 02008KT 00/M10 A3033 RMK A01 T00021096  RH  048%=      5-min Rain = 0
KCR1 120431Z 02008KT 00/M10 A3033 RMK A01 T00021095  RH  048%=      5-min Rain = 0
KCR1 120432Z 01009KT 00/M10 A3033 RMK A01 T00011096  RH  048%=      5-min Rain = 0
KCR1 120433Z 01008KT 00/M10 A3033 RMK A01 T00011096  RH  048%=      5-min Rain = 0
KCR1 120434Z 02007KT 00/10 A3033 RMK A01 T00-00-96  RH  048%=      5-min Rain = 0
KCR1 120435Z 02008KT M00/M10 A3033 RMK A01 T10011096  RH  049%=      5-min Rain = 0
KCR1 120436Z 02008KT M00/M10 A3033 RMK A01 T10021096  RH  049%=      5-min Rain = 0
KCR1 120437Z 02008KT M00/M10 A3033 RMK A01 T10021096  RH  049%=      5-min Rain = 0
KCR1 120438Z 02008KT M00/M10 A3033 RMK A01 T10031096  RH  049%=      5-min Rain = 0
KCR1 120439Z 02009KT M00/M10 A3033 RMK A01 T10031096  RH  050%=      5-min Rain = 0
KCR1 120440Z 02009KT M00/M10 A3033 RMK A01 T10041096  RH  050%=      5-min Rain = 0
KCR1 120441Z 03009KT M01/M10 A3033 RMK A01 T10051097  RH  050%=      5-min Rain = 0
KCR1 120442Z 03009KT M01/M10 A3033 RMK A01 T10051096  RH  050%=      5-min Rain = 0
KCR1 120443Z 03009KT M01/M10 A3033 RMK A01 T10051096  RH  050%=      5-min Rain = 0
KCR1 120444Z 03009KT M01/M10 A3032 RMK A01 T10061097  RH  050%=      5-min Rain = 0
KCR1 120445Z 03009KT M01/M10 A3032 RMK A01 T10071097  RH  050%=      5-min Rain = 0
KCR1 120446Z 03009KT M01/M10 A3032 RMK A01 T10081098  RH  050%=      5-min Rain = 0
KCR1 120447Z 03009KT M01/M10 A3032 RMK A01 T10091099  RH  051%=      5-min Rain = 0
KCR1 120448Z 03010KT M01/M10 A3032 RMK A01 T10101098  RH  051%=      5-min Rain = 0
KCR1 120449Z 02010KT M01/M10 A3032 RMK A01 T10101098  RH  051%=      5-min Rain = 0
KCR1 120450Z 02010KT M01/M10 A3032 RMK A01 T10101098  RH  051%=      5-min Rain = 0
KCR1 120451Z 03009KT M01/M10 A3032 RMK A01 T10091097  RH  052%=      5-min Rain = 0
KCR1 120452Z 03009KT M01/M10 A3032 RMK A01 T10091097  RH  051%=      5-min Rain = 0
KCR1 120453Z 03009KT M01/M10 A3032 RMK A01 T10101097  RH  051%=      5-min Rain = 0
KCR1 120454Z 03010KT M01/M10 A3032 RMK A01 T10111098  RH  052%=      5-min Rain = 0
KCR1 120455Z 03009KT M01/M10 A3032 RMK A01 T10121098  RH  052%=      5-min Rain = 0
KCR1 120456Z 03009KT M01/M10 A3032 RMK A01 T10131100  RH  052%=      5-min Rain = 0
KCR1 120457Z 03009KT M02/M10 A3032 RMK A01 T10151100  RH  052%=      5-min Rain = 0
KCR1 120458Z 03010KT M02/M10 A3032 RMK A01 T10161100  RH  053%=      5-min Rain = 0
KCR1 120459Z 03009KT M02/M10 A3032 RMK A01 T10171100  RH  053%=      5-min Rain = 0
KCR1 120500Z 03009KT M02/M10 A3032 RMK A01 T10171100  RH  053%=      5-min Rain = 0
KCR1 120501Z 03009KT M02/M10 A3032 RMK A01 T10171099  RH  054%=      5-min Rain = 0
KCR1 120502Z 03010KT M02/M10 A3032 RMK A01 T10181099  RH  054%=      5-min Rain = 0
KCR1 120503Z 03010KT M02/M10 A3032 RMK A01 T10181100  RH  054%=      5-min Rain = 0
KCR1 120504Z 03009KT M02/M10 A3032 RMK A01 T10191100  RH  054%=      5-min Rain = 0
KCR1 120505Z 03009KT M02/M10 A3032 RMK A01 T10191100  RH  054%=      5-min Rain = 0
KCR1 120506Z 03008KT M02/M10 A3032 RMK A01 T10191100  RH  054%=      5-min Rain = 0
KCR1 120507Z 03008KT M02/M10 A3032 RMK A01 T10201101  RH  054%=      5-min Rain = 0
KCR1 120508Z 03008KT M02/M10 A3032 RMK A01 T10201100  RH  054%=      5-min Rain = 0
KCR1 120509Z 03008KT M02/M10 A3032 RMK A01 T10201099  RH  054%=      5-min Rain = 0
KCR1 120510Z 03009KT M02/M10 A3032 RMK A01 T10191099  RH  054%=      5-min Rain = 0
KCR1 120511Z 03009KT M02/M10 A3032 RMK A01 T10191099  RH  054%=      5-min Rain = 0
KCR1 120512Z 03009KT M02/M10 A3032 RMK A01 T10191099  RH  054%=      5-min Rain = 0
KCR1 120513Z 03011KT M02/M10 A3032 RMK A01 T10191099  RH  054%=      5-min Rain = 0
KCR1 120514Z 03011KT M02/M10 A3032 RMK A01 T10171098  RH  054%=      5-min Rain = 0
KCR1 120515Z 02010KT M02/M10 A3032 RMK A01 T10171099  RH  054%=      5-min Rain = 0
KCR1 120516Z 03011KT M02/M10 A3032 RMK A01 T10171099  RH  053%=      5-min Rain = 0
KCR1 120517Z 03011KT M02/M10 A3032 RMK A01 T10161099  RH  053%=      5-min Rain = 0
KCR1 120518Z 03011KT M02/M10 A3032 RMK A01 T10161099  RH  053%=      5-min Rain = 0
KCR1 120519Z 03011KT M02/M10 A3032 RMK A01 T10161099  RH  053%=      5-min Rain = 0
KCR1 120520Z 03011KT M02/M10 A3032 RMK A01 T10171100  RH  053%=      5-min Rain = 0
KCR1 120521Z 03011KT M02/M10 A3032 RMK A01 T10171100  RH  053%=      5-min Rain = 0
KCR1 120522Z 03011KT M02/M10 A3032 RMK A01 T10171100  RH  053%=      5-min Rain = 0
KCR1 120523Z 03011KT M02/M10 A3032 RMK A01 T10171100  RH  053%=      5-min Rain = 0
KCR1 120524Z 03011KT M02/M10 A3032 RMK A01 T10171100  RH  053%=      5-min Rain = 0
KCR1 120525Z 02012KT M02/M10 A3032 RMK A01 T10161100  RH  053%=      5-min Rain = 0
KCR1 120526Z 03011KT M02/M10 A3032 RMK A01 T10151099  RH  053%=      5-min Rain = 0
KCR1 120527Z 03012KT M02/M10 A3032 RMK A01 T10151100  RH  052%=      5-min Rain = 0
KCR1 120528Z 03011KT M02/M10 A3032 RMK A01 T10151100  RH  052%=      5-min Rain = 0
KCR1 120529Z 03010KT M02/M10 A3032 RMK A01 T10151100  RH  052%=      5-min Rain = 0
KCR1 120530Z 02010KT M02/M10 A3032 RMK A01 T10161101  RH  052%=      5-min Rain = 0
KCR1 120531Z 02010KT M02/M10 A3032 RMK A01 T10161101  RH  052%=      5-min Rain = 0
KCR1 120532Z 02009KT M02/M10 A3032 RMK A01 T10161101  RH  052%=      5-min Rain = 0
KCR1 120533Z 02009KT M02/M10 A3033 RMK A01 T10171101  RH  053%=      5-min Rain = 0
KCR1 120534Z 02009KT M02/M10 A3033 RMK A01 T10171101  RH  053%=      5-min Rain = 0
KCR1 120535Z 02008KT M02/M10 A3033 RMK A01 T10181101  RH  053%=      5-min Rain = 0
KCR1 120536Z 02010KT M02/M10 A3033 RMK A01 T10181102  RH  053%=      5-min Rain = 0
KCR1 120537Z 02009KT M02/M10 A3033 RMK A01 T10191102  RH  053%=      5-min Rain = 0
KCR1 120538Z 02010KT M02/M10 A3032 RMK A01 T10191102  RH  053%=      5-min Rain = 0
KCR1 120539Z 02010KT M02/M10 A3032 RMK A01 T10201102  RH  053%=      5-min Rain = 0
KCR1 120540Z 03010KT M02/M10 A3032 RMK A01 T10201102  RH  053%=      5-min Rain = 0
KCR1 120541Z 03010KT M02/M10 A3032 RMK A01 T10201102  RH  054%=      5-min Rain = 0
KCR1 120542Z 03010KT M02/M10 A3032 RMK A01 T10211103  RH  054%=      5-min Rain = 0
KCR1 120543Z 02009KT M02/M10 A3032 RMK A01 T10221103  RH  054%=      5-min Rain = 0
KCR1 120544Z 02010KT M02/M10 A3032 RMK A01 T10231103  RH  054%=      5-min Rain = 0
KCR1 120545Z 02010KT M02/M10 A3033 RMK A01 T10231102  RH  054%=      5-min Rain = 0
KCR1 120546Z 02010KT M02/M10 A3032 RMK A01 T10231103  RH  054%=      5-min Rain = 0
KCR1 120547Z 02010KT M02/M10 A3032 RMK A01 T10221103  RH  054%=      5-min Rain = 0
KCR1 120548Z 01011KT M02/M10 A3032 RMK A01 T10221103  RH  054%=      5-min Rain = 0
KCR1 120549Z 01011KT M02/M10 A3032 RMK A01 T10221103  RH  054%=      5-min Rain = 0
KCR1 120550Z 01011KT M02/M10 A3033 RMK A01 T10221103  RH  054%=      5-min Rain = 0
KCR1 120551Z 01012KT M02/M10 A3033 RMK A01 T10221104  RH  054%=      5-min Rain = 0
KCR1 120552Z 01011KT M02/M10 A3033 RMK A01 T10221104  RH  053%=      5-min Rain = 0
KCR1 120553Z 01011KT M02/M10 A3033 RMK A01 T10211104  RH  053%=      5-min Rain = 0
KCR1 120554Z 01010KT M02/M10 A3033 RMK A01 T10211103  RH  053%=      5-min Rain = 0
KCR1 120555Z 01009KT M02/M10 A3033 RMK A01 T10221104  RH  053%=      5-min Rain = 0
KCR1 120556Z 01010KT M02/M10 A3033 RMK A01 T10231104  RH  054%=      5-min Rain = 0
KCR1 120557Z 01009KT M02/M10 A3033 RMK A01 T10231104  RH  054%=      5-min Rain = 0
KCR1 120558Z 01009KT M02/M10 A3033 RMK A01 T10231104  RH  054%=      5-min Rain = 0
KCR1 120559Z 01010KT M02/M10 A3033 RMK A01 T10241104  RH  054%=      5-min Rain = 0

Page generated in 0.0583 seconds.